Data for 08/15/2011

Time Sea-Level Adjusted Pressure Absolute Pressure Temperature Relative Humidity Dew Point Precipitation   
(mb) (inHg) (mb) (inHg) (C) (F) (%) (C) (F) (mm) (in)
00:01 1016 30 845 24.95 17.7 63.9 35 2.2 35.9 -86.4 -3.402
00:02 1016 30 845 24.95 17.7 63.9 35 2.2 36 -86.4 -3.402
00:03 1016 30 845 24.95 17.7 63.8 35 2.3 36.1 -86.4 -3.402
00:04 1016 30 845 24.95 17.7 63.8 35 2.3 36.2 -86.4 -3.402
00:05 1016 30 845 24.95 17.7 63.8 36 2.4 36.3 -86.5 -3.406
00:06 1016 30 845 24.95 17.6 63.6 35 2.2 35.9 -86.5 -3.406
00:07 1016 30 845 24.95 17.6 63.7 36 2.4 36.2 -86.5 -3.406
00:08 1016 30 845 24.95 17.6 63.6 35 1.9 35.4 -86.5 -3.406
00:09 1016 30 845 24.95 17.6 63.8 35 2 35.6 -86.5 -3.406
00:10 1016 30 845 24.95 17.6 63.7 35 2.2 35.9 -86.5 -3.406
00:11 1016 30 845 24.95 17.6 63.6 36 2.5 36.5 -86.5 -3.406
00:12 1016 30 845 24.95 17.5 63.4 36 2.5 36.6 -86.5 -3.406
00:13 1016 30 845 24.95 17.4 63.3 35 2 35.6 -86.5 -3.406
00:14 1016 30 845 24.95 17.4 63.3 36 2.1 35.8 -86.5 -3.406
00:15 1016 30 845 24.95 17.4 63.4 35 1.9 35.3 -86.5 -3.406
00:16 1015 29.97 845 24.95 17.6 63.6 35 2 35.7 -86.5 -3.406
00:17 1016 30 845 24.95 17.6 63.6 35 2.1 35.8 -86.5 -3.406
00:18 1015 29.97 845 24.95 17.5 63.6 35 2.2 35.9 -86.5 -3.406
00:19 1015 29.97 845 24.95 17.5 63.4 36 2.3 36.1 -86.5 -3.406
00:20 1015 29.97 845 24.95 17.4 63.3 36 2.2 36 -86.5 -3.406
00:21 1015 29.97 845 24.95 17.3 63.1 35 1.9 35.4 -86.5 -3.406
00:22 1015 29.97 845 24.95 17.4 63.2 36 2.1 35.9 -86.5 -3.406
00:23 1015 29.97 845 24.95 17.4 63.2 36 2.2 35.9 -86.5 -3.406
00:24 1015 29.97 845 24.95 17.3 63.1 35 1.9 35.3 -86.5 -3.406
00:25 1015 29.97 845 24.95 17.3 63.1 35 1.7 35.1 -86.5 -3.406
00:26 1015 29.97 845 24.95 17.4 63.3 33 1.2 34.1 -86.5 -3.406
00:27 1015 29.97 845 24.95 17.5 63.4 35 2.1 35.8 -86.5 -3.406
00:28 1015 29.97 845 24.95 17.4 63.3 36 2.4 36.4 -86.5 -3.406
00:29 1015 29.97 845 24.95 17.2 62.9 37 2.4 36.3 -86.5 -3.406
00:30 1015 29.97 845 24.95 17 62.7 36 1.9 35.5 -86.5 -3.406
00:31 1015 29.97 845 24.95 16.9 62.5 38 2.7 36.8 -86.5 -3.406
00:32 1015 29.97 845 24.95 16.3 61.4 41 3 37.4 -86.5 -3.406
00:33 1015 29.97 845 24.95 15.7 60.2 41 2.7 36.9 -86.6 -3.409
00:34 1015 29.97 845 24.95 15.3 59.5 41 2.2 36 -86.6 -3.409
00:35 1015 29.97 845 24.95 15.2 59.3 40 1.9 35.5 -86.6 -3.409
00:36 1015 29.97 845 24.95 15.3 59.5 40 1.8 35.3 -86.6 -3.409
00:37 1015 29.97 845 24.95 15.6 60.1 36 0.7 33.2 -86.6 -3.409
00:38 1015 29.97 845 24.95 16 60.9 38 1.9 35.5 -86.6 -3.409
00:39 1015 29.97 845 24.95 16 60.9 38 1.8 35.2 -86.7 -3.413
00:40 1015 29.97 845 24.95 15.9 60.7 37 1.4 34.6 -86.7 -3.413
00:41 1015 29.97 844 24.92 16 60.9 37 1.6 34.9 -86.7 -3.413
00:42 1015 29.97 844 24.92 16.2 61.1 37 1.7 35.1 -86.7 -3.413
00:43 1015 29.97 844 24.92 16.2 61.1 38 2 35.7 -86.7 -3.413
00:44 1015 29.97 844 24.92 16.1 60.9 39 2.3 36.1 -86.7 -3.413
00:45 1015 29.97 844 24.92 15.9 60.7 39 2.3 36.1 -86.8 -3.417
00:46 1015 29.97 844 24.92 15.7 60.3 41 2.6 36.6 -86.8 -3.417
00:47 1015 29.97 844 24.92 15.6 60 40 2.2 36 -86.8 -3.417
00:48 1015 29.97 845 24.95 15.6 60 40 2.3 36.1 -86.8 -3.417
00:49 1015 29.97 845 24.95 15.6 60.1 40 2.2 35.9 -86.8 -3.417
00:50 1015 29.97 845 24.95 15.7 60.3 39 2 35.6 -86.8 -3.417
00:51 1015 29.97 845 24.95 15.9 60.6 38 1.5 34.8 -86.9 -3.421
00:52 1015 29.97 845 24.95 16.2 61.2 37 1.8 35.2 -86.9 -3.421
00:53 1015 29.97 845 24.95 16.4 61.5 37 1.9 35.4 -86.9 -3.421
00:54 1015 29.97 845 24.95 16.4 61.6 38 2.3 36.1 -86.9 -3.421
00:55 1015 29.97 845 24.95 16.3 61.4 37 1.9 35.4 -86.9 -3.421
00:56 1015 29.97 845 24.95 16.3 61.4 38 2.1 35.8 -86.9 -3.421
00:57 1015 29.97 845 24.95 16.3 61.3 37 1.6 34.8 -86.9 -3.421
00:58 1015 29.97 845 24.95 16.5 61.7 36 1.6 34.8 -87 -3.425
00:59 1015 29.97 845 24.95 16.7 62.1 37 1.9 35.5 -87 -3.425
01:00 1015 29.97 845 24.95 16.7 62.1 37 2.1 35.8 -87 -3.425
01:01 1015 29.97 845 24.95 16.5 61.8 37 1.9 35.5 -87 -3.425
01:02 1015 29.97 845 24.95 16.7 62 37 1.8 35.3 -87 -3.425
01:03 1015 29.97 845 24.95 16.7 62.1 38 2.6 36.7 -87 -3.425
01:04 1015 29.97 845 24.95 16.6 61.8 39 2.6 36.6 -87 -3.425
01:05 1015 29.97 845 24.95 16.5 61.7 40 3 37.5 -87 -3.425
01:06 1015 29.97 845 24.95 16.3 61.3 41 3 37.4 -87 -3.425
01:07 1015 29.97 845 24.95 16 60.9 43 3.4 38.2 -87 -3.425
01:08 1015 29.97 845 24.95 15.7 60.3 41 2.6 36.7 -87 -3.425
01:09 1015 29.97 845 24.95 15.8 60.4 41 2.8 37 -87 -3.425
01:10 1016 30 845 24.95 15.9 60.7 41 2.6 36.7 -87 -3.425
01:11 1016 30 845 24.95 16 60.8 40 2.6 36.7 -87 -3.425
01:12 1016 30 845 24.95 16 60.8 40 2.4 36.3 -87 -3.425
01:13 1015 29.97 845 24.95 16.1 60.9 39 2.3 36.2 -87 -3.425
01:14 1015 29.97 845 24.95 16.4 61.5 37 1.7 35.1 -87.1 -3.429
01:15 1016 30 845 24.95 16.9 62.4 36 2 35.6 -87.1 -3.429
01:16 1016 30 845 24.95 17.1 62.8 37 2.3 36.2 -87.1 -3.429
01:17 1016 30 845 24.95 17.1 62.7 36 1.8 35.3 -87.1 -3.429
01:18 1016 30 845 24.95 17.2 62.9 36 2 35.5 -87.1 -3.429
01:19 1016 30 845 24.95 17.4 63.3 31 0.3 32.5 -87.1 -3.429
01:20 1016 30 845 24.95 18.2 64.7 31 1 33.8 -87.1 -3.429
01:21 1016 30 845 24.95 18.4 65.1 32 1.6 34.9 -87.1 -3.429
01:22 1016 30 845 24.95 18.4 65.1 32 1.3 34.4 -87.1 -3.429
01:23 1016 30 845 24.95 18.4 65.1 31 1.3 34.3 -87.1 -3.429
01:24 1016 30 845 24.95 18.4 65.1 32 1.5 34.7 -87.1 -3.429
01:25 1016 30 845 24.95 18.2 64.8 33 1.7 35.1 -87.1 -3.429
01:26 1016 30 845 24.95 18.3 64.9 31 1.1 34 -87.2 -3.433
01:27 1016 30 845 24.95 18.5 65.2 31 1.3 34.3 -87.1 -3.429
01:28 1016 30 845 24.95 18.6 65.4 32 1.5 34.8 -87.1 -3.429
01:29 1016 30 845 24.95 18.5 65.3 32 1.7 35 -87.1 -3.429
01:30 1016 30 845 24.95 18.4 65.1 33 1.8 35.3 -87.1 -3.429
01:31 1016 30 845 24.95 18.2 64.7 34 2.2 36 -87.1 -3.429
01:32 1016 30 845 24.95 17.9 64.3 34 2 35.5 -87.1 -3.429
01:33 1016 30 845 24.95 17.9 64.2 33 1.6 34.8 -87.1 -3.429
01:34 1016 30 845 24.95 17.9 64.2 33 1.7 35.1 -87.1 -3.429
01:35 1016 30 845 24.95 18 64.3 33 1.6 34.9 -87.1 -3.429
01:36 1016 30 845 24.95 17.9 64.3 34 1.8 35.2 -87.1 -3.429
01:37 1016 30 845 24.95 17.9 64.1 35 2.3 36.2 -87.1 -3.429
01:38 1016 30 845 24.95 17.8 64 35 2.3 36.2 -87.1 -3.429
01:39 1016 30 845 24.95 17.7 63.8 36 2.4 36.3 -87.1 -3.429
01:40 1016 30 845 24.95 17.6 63.7 35 2.2 35.9 -87.1 -3.429
01:41 1016 30 845 24.95 17.6 63.7 34 1.8 35.2 -87 -3.425
01:42 1016 30 845 24.95 17.6 63.6 34 1.7 35.1 -87 -3.425
01:43 1016 30 845 24.95 17.6 63.6 35 2.2 36 -87 -3.425
01:44 1016 30 845 24.95 17.5 63.6 34 1.5 34.7 -87 -3.425
01:45 1016 30 845 24.95 17.7 63.8 33 1.3 34.3 -87 -3.425
01:46 1016 30 845 24.95 17.9 64.2 32 1.2 34.2 -87 -3.425
01:47 1016 30 845 24.95 18.1 64.7 32 1.2 34.1 -87 -3.425
01:48 1016 30 845 24.95 18.3 65 32 1.6 34.9 -87 -3.425
01:49 1016 30 845 24.95 18.4 65.1 31 0.9 33.7 -87 -3.425
01:50 1016 30 845 24.95 18.6 65.4 31 1.2 34.2 -87 -3.425
01:51 1016 30 845 24.95 18.6 65.5 31 1.5 34.7 -87.1 -3.429
01:52 1016 30 845 24.95 18.5 65.4 32 1.6 34.9 -87.1 -3.429
01:53 1016 30 845 24.95 18.4 65.1 32 1.7 35.1 -87 -3.425
01:54 1016 30 845 24.95 18.3 64.9 33 1.8 35.3 -87 -3.425
01:55 1016 30 845 24.95 18 64.5 34 2 35.6 -87 -3.425
01:56 1016 30 845 24.95 17.9 64.3 33 1.6 34.8 -87 -3.425
01:57 1016 30 845 24.95 17.8 64.1 34 1.9 35.4 -87 -3.425
01:58 1016 30 845 24.95 17.7 63.9 34 1.9 35.5 -87 -3.425
01:59 1016 30 845 24.95 17.7 63.8 34 1.7 35.1 -87 -3.425
02:00 1016 30 845 24.95 17.6 63.7 34 1.6 34.9 -87 -3.425
02:01 1016 30 845 24.95 17.6 63.7 34 1.8 35.3 -87 -3.425
02:02 1016 30 845 24.95 17.5 63.5 38 3.1 37.5 -87 -3.425
02:03 1016 30 845 24.95 17.3 63.1 34 1.5 34.7 -87 -3.425
02:04 1016 30 845 24.95 17.3 63.2 34 1.4 34.5 -87 -3.425
02:05 1016 30 845 24.95 17.5 63.5 35 2 35.6 -87 -3.425
02:06 1016 30 845 24.95 17.5 63.5 34 1.6 34.9 -87 -3.425
02:07 1016 30 845 24.95 17.6 63.6 33 1.2 34.2 -87 -3.425
02:08 1016 30 845 24.95 17.6 63.7 34 1.9 35.4 -87 -3.425
02:09 1016 30 845 24.95 17.6 63.7 33 1.4 34.5 -87 -3.425
02:10 1016 30 845 24.95 17.7 63.8 34 1.5 34.8 -87 -3.425
02:11 1016 30 845 24.95 17.8 64 34 1.6 34.9 -87 -3.425
02:12 1016 30 845 24.95 17.8 64.1 34 1.8 35.3 -87 -3.425
02:13 1016 30 845 24.95 17.7 63.9 36 2.7 36.8 -87 -3.425
02:14 1016 30 845 24.95 17.4 63.4 39 3.4 38.2 -87 -3.425
02:15 1016 30 845 24.95 17.2 62.9 38 2.9 37.2 -87 -3.425
02:16 1016 30 845 24.95 17 62.7 39 3 37.3 -87.1 -3.429
02:17 1016 30 845 24.95 16.9 62.5 37 2.3 36.2 -87.1 -3.429
02:18 1016 30 845 24.95 16.9 62.5 37 2.2 36 -87.1 -3.429
02:19 1016 30 845 24.95 17 62.7 36 2 35.6 -87.1 -3.429
02:20 1016 30 845 24.95 17.2 62.9 35 1.8 35.2 -87.1 -3.429
02:21 1016 30 845 24.95 17.3 63.1 35 1.9 35.4 -87.2 -3.433
02:22 1016 30 845 24.95 17.3 63.1 36 2.1 35.8 -87.2 -3.433
02:23 1016 30 845 24.95 17.3 63.2 38 3.1 37.6 -87.2 -3.433
02:24 1016 30 845 24.95 17.3 63.1 43 4.7 40.5 -87.2 -3.433
02:25 1016 30 845 24.95 16.9 62.5 45 5 41 -87.2 -3.433
02:26 1016 30 845 24.95 16.5 61.7 44 4.5 40.1 -87.2 -3.433
02:27 1016 30 845 24.95 16.2 61.2 44 4.2 39.5 -87.2 -3.433
02:28 1016 30 846 24.98 16.1 60.9 46 4.7 40.4 -87.2 -3.433
02:29 1016 30 846 24.98 15.9 60.7 46 4.3 39.7 -87.1 -3.429
02:30 1016 30 846 24.98 15.9 60.6 46 4.5 40.1 -87.1 -3.429
02:31 1016 30 846 24.98 15.8 60.4 46 4.4 39.9 -87.1 -3.429
02:32 1016 30 846 24.98 15.7 60.3 47 4.5 40.2 -87.1 -3.429
02:33 1016 30 846 24.98 15.6 60.1 48 4.7 40.5 -87.1 -3.429
02:34 1016 30 846 24.98 15.5 60 47 4.3 39.8 -87.1 -3.429
02:35 1016 30 846 24.98 15.5 59.9 42 2.6 36.7 -87.1 -3.429
02:36 1016 30 845 24.95 15.7 60.2 38 1.5 34.7 -87.1 -3.429
02:37 1016 30 846 24.98 16 60.8 41 2.8 37.1 -87.1 -3.429
02:38 1016 30 846 24.98 16.4 61.4 41 3.2 37.8 -87.1 -3.429
02:39 1016 30 846 24.98 16.6 61.8 36 1.6 34.9 -87.1 -3.429
02:40 1016 30 846 24.98 16.8 62.3 40 3.1 37.6 -87.1 -3.429
02:41 1016 30 846 24.98 17 62.6 32 0.5 32.9 -87.1 -3.429
02:42 1017 30.03 846 24.98 17.4 63.4 44 5.1 41.2 -87.1 -3.429
02:43 1017 30.03 846 24.98 17.2 63 42 4.4 39.9 -87.1 -3.429
02:44 1017 30.03 846 24.98 16.9 62.4 45 4.9 40.9 -87.1 -3.429
02:45 1017 30.03 846 24.98 16.7 62.1 40 3.3 37.9 -87.1 -3.429
02:46 1017 30.03 846 24.98 16.7 62.1 45 4.7 40.4 -87.1 -3.429
02:47 1017 30.03 846 24.98 16.8 62.2 47 5.5 41.9 -87.1 -3.429
02:48 1017 30.03 846 24.98 16.5 61.7 40 3.1 37.5 -87.1 -3.429
02:49 1017 30.03 846 24.98 16.4 61.5 36 1.3 34.3 -87.1 -3.429
02:50 1017 30.03 846 24.98 16.6 61.8 33 0.4 32.6 -87.1 -3.429
02:51 1017 30.03 846 24.98 17.1 62.7 40 3.4 38.1 -87.1 -3.429
02:52 1017 30.03 846 24.98 17.2 63 39 3.3 38 -87.1 -3.429
02:53 1017 30.03 846 24.98 17.2 63 43 4.6 40.3 -87.1 -3.429
02:54 1017 30.03 846 24.98 17.1 62.7 38 2.9 37.3 -87.1 -3.429
02:55 1017 30.03 846 24.98 17 62.6 36 1.9 35.4 -87.1 -3.429
02:56 1016 30 846 24.98 17.2 62.9 37 2.5 36.5 -87.1 -3.429
02:57 1016 30 846 24.98 17.3 63.1 38 3.1 37.6 -87.1 -3.429
02:58 1016 30 846 24.98 17.3 63.1 37 2.5 36.4 -87.1 -3.429
02:59 1016 30 846 24.98 17.3 63.1 36 2.4 36.2 -87.1 -3.429
03:00 1016 30 846 24.98 17.3 63.2 36 2.3 36.1 -87.1 -3.429
03:01 1016 30 846 24.98 17.5 63.6 33 1.3 34.4 -87.1 -3.429
03:02 1016 30 846 24.98 18 64.4 31 0.8 33.4 -87.1 -3.429
03:03 1016 30 846 24.98 18.6 65.4 31 1.2 34.2 -87.1 -3.429
03:04 1016 30 846 24.98 18.9 66 30 1.2 34.2 -87.1 -3.429
03:05 1016 30 846 24.98 19.2 66.5 30 1.2 34.1 -87.1 -3.429
03:06 1016 30 846 24.98 19.6 67.3 29 1.3 34.3 -87.1 -3.429
03:07 1016 30 846 24.98 19.9 67.9 27 0.7 33.3 -87.1 -3.429
03:08 1016 30 846 24.98 20.3 68.5 28 1.5 34.7 -87.1 -3.429
03:09 1016 30 846 24.98 20.4 68.7 27 1.2 34.1 -87.1 -3.429
03:10 1016 30 845 24.95 20.5 68.8 28 1.4 34.5 -87.1 -3.429
03:11 1016 30 845 24.95 20.5 68.9 28 1.3 34.4 -87.1 -3.429
03:12 1016 30 845 24.95 20.5 69 28 1.4 34.5 -87.1 -3.429
03:13 1016 30 845 24.95 20.5 68.9 28 1.5 34.8 -87.1 -3.429
03:14 1016 30 845 24.95 20.5 68.8 28 1.7 35.1 -87.1 -3.429
03:15 1016 30 845 24.95 20.4 68.7 28 1.5 34.7 -87.1 -3.429
03:16 1016 30 845 24.95 20.3 68.6 28 1.5 34.7 -87 -3.425
03:17 1016 30 845 24.95 20.4 68.6 29 1.7 35 -87 -3.425
03:18 1016 30 845 24.95 20.3 68.5 29 2 35.6 -87 -3.425
03:19 1016 30 845 24.95 20.1 68.3 30 2.1 35.8 -87 -3.425
03:20 1016 30 845 24.95 19.9 67.9 31 2.3 36.1 -87 -3.425
03:21 1016 30 845 24.95 19.7 67.4 32 2.5 36.4 -87 -3.425
03:22 1016 30 845 24.95 19.4 66.9 31 2.2 35.9 -87 -3.425
03:23 1016 30 845 24.95 19.2 66.6 30 1.4 34.5 -87 -3.425
03:24 1016 30 845 24.95 19.3 66.7 30 1.5 34.7 -87 -3.425
03:25 1016 30 845 24.95 19.3 66.8 30 1.4 34.5 -87 -3.425
03:26 1016 30 845 24.95 19.4 66.9 30 1.5 34.6 -86.9 -3.421
03:27 1016 30 845 24.95 19.5 67 30 1.4 34.5 -86.9 -3.421
03:28 1016 30 845 24.95 19.6 67.3 29 1.4 34.5 -86.9 -3.421
03:29 1016 30 845 24.95 19.8 67.6 29 1.5 34.7 -86.9 -3.421
03:30 1016 30 845 24.95 19.9 67.8 29 1.4 34.4 -86.9 -3.421
03:31 1016 30 845 24.95 20 68 29 1.7 35 -86.8 -3.417
03:32 1016 30 845 24.95 20.1 68.1 29 1.5 34.7 -86.8 -3.417
03:33 1016 30 845 24.95 20.2 68.4 29 1.8 35.3 -86.8 -3.417
03:34 1016 30 845 24.95 20.3 68.6 29 2.1 35.7 -86.8 -3.417
03:35 1016 30 845 24.95 20.3 68.6 28 1.6 34.9 -86.8 -3.417
03:36 1016 30 845 24.95 20.4 68.8 29 1.9 35.4 -86.8 -3.417
03:37 1016 30 845 24.95 20.4 68.7 29 2 35.7 -86.8 -3.417
03:38 1016 30 845 24.95 20.4 68.6 30 2.2 36 -86.8 -3.417
03:39 1016 30 845 24.95 20.2 68.4 30 2.1 35.7 -86.7 -3.413
03:40 1016 30 845 24.95 20.2 68.3 30 2 35.6 -86.7 -3.413
03:41 1016 30 845 24.95 20.1 68.3 31 2.7 36.9 -86.7 -3.413
03:42 1016 30 845 24.95 20 68 31 2.7 36.9 -86.7 -3.413
03:43 1016 30 845 24.95 19.9 67.7 32 2.6 36.8 -86.7 -3.413
03:44 1016 30 845 24.95 19.7 67.5 32 2.8 37 -86.7 -3.413
03:45 1016 30 845 24.95 19.6 67.3 33 3 37.3 -86.7 -3.413
03:46 1016 30 845 24.95 19.5 67.1 32 2.4 36.3 -86.7 -3.413
03:47 1016 30 845 24.95 19.5 67.2 31 2.3 36.2 -86.7 -3.413
03:48 1016 30 845 24.95 19.5 67.2 31 2.3 36.2 -87 -3.425
03:49 1016 30 845 24.95 19.6 67.2 32 2.6 36.7 -87.4 -3.441
03:50 1016 30 845 24.95 19.6 67.4 31 2 35.6 -88.2 -3.472
03:51 1016 30 845 24.95 19.8 67.6 32 2.7 36.8 -89.8 -3.535
03:52 1016 30 845 24.95 19.8 67.6 33 3.1 37.6 -91.3 -3.594
03:53 1016 30 845 24.95 19.6 67.2 35 3.9 39 -92.9 -3.657
03:54 1016 30 845 24.95 19.3 66.7 37 4.3 39.7 -92.6 -3.646
03:55 1016 30 845 24.95 18.9 66 37 4.2 39.5 -92.6 -3.646
03:56 1016 30 845 24.95 18.6 65.5 38 4.2 39.5 -93.7 -3.689
03:57 1016 30 845 24.95 18.5 65.3 38 3.9 39.1 -94.1 -3.705
03:58 1016 30 846 24.98 18.4 65.2 39 4.5 40.1 -93.9 -3.697
03:59 1017 30.03 846 24.98 18.4 65.1 41 5.2 41.3 -93.1 -3.665
04:00 1017 30.03 846 24.98 18.3 65 45 6.4 43.4 -91.3 -3.594
04:01 1017 30.03 846 24.98 18.2 64.7 47 7 44.5 -86.3 -3.398
04:02 1017 30.03 846 24.98 18.1 64.5 49 7.4 45.4 -81.3 -3.201
04:03 1017 30.03 846 24.98 17.9 64.3 49 7.3 45.2 -88 -3.465
04:04 1017 30.03 846 24.98 18.1 64.5 47 6.7 44.1 -86.6 -3.409
04:05 1017 30.03 846 24.98 18.3 65 49 7.4 45.4 -67.92 -2.674
04:06 1017 30.03 846 24.98 18.3 65 48 7.4 45.3 -71.8 -2.827
04:07 1017 30.03 846 24.98 18.5 65.3 50 8.1 46.5 -75.6 -2.976
04:08 1017 30.03 847 25.01 18.3 65 53 8.6 47.5 -78 -3.071
04:09 1017 30.03 847 25.01 18.1 64.6 55 9 48.2 -79.3 -3.122
04:10 1018 30.06 847 25.01 17.9 64.2 53 8.4 47.1 -80.1 -3.154
04:11 1018 30.06 847 25.01 17.7 63.9 55 8.7 47.6 -80.5 -3.169
04:12 1018 30.06 847 25.01 17.8 64 53 8.2 46.7 -80.8 -3.181
04:13 1018 30.06 847 25.01 17.8 64.1 55 8.8 47.8 -81 -3.189
04:14 1018 30.06 847 25.01 17.6 63.6 57 9.1 48.4 -81.1 -3.193
04:15 1018 30.06 847 25.01 17.4 63.2 55 8.4 47.2 -81.2 -3.197
04:16 1018 30.06 847 25.01 17.3 63.2 58 9 48.3 -81.2 -3.197
04:17 1018 30.06 847 25.01 17.2 63 59 9.1 48.4 -81.1 -3.193
04:18 1018 30.06 847 25.01 17 62.5 61 9.4 48.9 -81.1 -3.193
04:19 1018 30.06 847 25.01 16.8 62.2 63 9.9 49.7 -81.5 -3.209
04:20 1018 30.06 847 25.01 16.4 61.6 65 9.8 49.7 -82.1 -3.232
04:21 1018 30.06 847 25.01 16.2 61.1 64 9.4 49 -82.6 -3.252
04:22 1018 30.06 847 25.01 16 60.7 66 9.6 49.3 -82.8 -3.26
04:23 1018 30.06 847 25.01 15.9 60.5 66 9.6 49.2 -82.9 -3.264
04:24 1018 30.06 847 25.01 15.8 60.4 65 9.3 48.7 -83 -3.268
04:25 1018 30.06 847 25.01 15.8 60.4 63 8.8 47.8 -83.1 -3.272
04:26 1018 30.06 847 25.01 15.9 60.6 63 8.9 48 -83.1 -3.272
04:27 1018 30.06 847 25.01 16 60.8 62 8.7 47.7 -83.1 -3.272
04:28 1018 30.06 847 25.01 16.1 61 62 8.9 48 -83.1 -3.272
04:29 1018 30.06 847 25.01 16.2 61.1 64 9.3 48.8 -83.1 -3.272
04:30 1017 30.03 847 25.01 16.1 60.9 64 9.3 48.8 -83.1 -3.272
04:31 1017 30.03 847 25.01 16 60.7 64 9.3 48.7 -83.1 -3.272
04:32 1017 30.03 846 24.98 15.9 60.6 65 9.3 48.8 -83 -3.268
04:33 1017 30.03 846 24.98 15.9 60.6 65 9.3 48.7 -83 -3.268
04:34 1017 30.03 846 24.98 15.8 60.5 65 9.3 48.7 -82.9 -3.264
04:35 1017 30.03 846 24.98 15.8 60.4 67 9.7 49.4 -82.9 -3.264
04:36 1017 30.03 846 24.98 15.7 60.3 64 9 48.2 -82.9 -3.264
04:37 1017 30.03 846 24.98 15.7 60.3 65 9.3 48.7 -82.8 -3.26
04:38 1017 30.03 846 24.98 15.7 60.3 64 9.1 48.3 -82.8 -3.26
04:39 1017 30.03 846 24.98 15.8 60.4 66 9.5 49.1 -82.8 -3.26
04:40 1017 30.03 846 24.98 15.7 60.2 66 9.4 49 -82.7 -3.256
04:41 1017 30.03 846 24.98 15.6 60.2 64 8.9 48.1 -82.7 -3.256
04:42 1017 30.03 846 24.98 15.7 60.3 65 9.2 48.5 -82.7 -3.256
04:43 1017 30.03 846 24.98 15.7 60.3 64 9 48.1 -82.7 -3.256
04:44 1017 30.03 846 24.98 15.8 60.4 65 9.2 48.5 -82.7 -3.256
04:45 1017 30.03 846 24.98 15.8 60.4 65 9.2 48.5 -82.7 -3.256
04:46 1017 30.03 846 24.98 15.7 60.3 66 9.3 48.8 -82.8 -3.26
04:47 1017 30.03 846 24.98 15.7 60.2 64 9.1 48.3 -82.8 -3.26
04:48 1017 30.03 846 24.98 15.6 60.1 66 9.3 48.7 -82.8 -3.26
04:49 1017 30.03 846 24.98 15.6 60 66 9.3 48.7 -82.9 -3.264
04:50 1017 30.03 846 24.98 15.4 59.8 67 9.5 49.1 -82.9 -3.264
04:51 1017 30.03 846 24.98 15.3 59.6 65 9 48.1 -82.9 -3.264
04:52 1017 30.03 846 24.98 15.3 59.6 67 9.4 48.9 -82.9 -3.264
04:53 1017 30.03 846 24.98 15.3 59.5 67 9.2 48.6 -82.9 -3.264
04:54 1017 30.03 846 24.98 15.3 59.5 68 9.5 49.2 -83 -3.268
04:55 1017 30.03 846 24.98 15.2 59.4 69 9.6 49.2 -83 -3.268
04:56 1017 30.03 846 24.98 15.1 59.3 70 9.7 49.5 -83 -3.268
04:57 1016 30 846 24.98 15.1 59.1 71 10 50 -83 -3.268
04:58 1016 30 846 24.98 14.9 58.8 71 9.6 49.3 -83 -3.268
04:59 1016 30 846 24.98 14.9 58.8 70 9.6 49.2 -83 -3.268
05:00 1016 30 846 24.98 15 58.9 70 9.6 49.2 -83 -3.268
05:01 1017 30.03 846 24.98 15 58.9 71 9.8 49.7 -83 -3.268
05:02 1016 30 846 24.98 14.9 58.8 72 9.9 49.9 -83.1 -3.272
05:03 1017 30.03 846 24.98 14.8 58.6 73 10 49.9 -83.1 -3.272
05:04 1017 30.03 846 24.98 14.7 58.4 73 10 49.9 -83.1 -3.272
05:05 1017 30.03 846 24.98 14.7 58.4 75 10.3 50.5 -83.1 -3.272
05:06 1017 30.03 846 24.98 14.6 58.2 76 10.4 50.7 -83.1 -3.272
05:07 1017 30.03 846 24.98 14.5 58.2 76 10.5 50.8 -83.1 -3.272
05:08 1017 30.03 846 24.98 14.5 58.1 76 10.3 50.6 -83.1 -3.272
05:09 1017 30.03 846 24.98 14.5 58 76 10.3 50.5 -83.1 -3.272
05:10 1017 30.03 846 24.98 14.5 58.1 76 10.3 50.6 -83.1 -3.272
05:11 1017 30.03 846 24.98 14.5 58.1 74 10 49.9 -83.1 -3.272
05:12 1017 30.03 846 24.98 14.6 58.3 74 10 50 -83.2 -3.276
05:13 1017 30.03 846 24.98 14.7 58.5 72 9.8 49.7 -83.2 -3.276
05:14 1017 30.03 846 24.98 14.8 58.6 73 9.9 49.9 -83.2 -3.276
05:15 1017 30.03 846 24.98 14.8 58.6 73 10 50.1 -83.3 -3.28
05:16 1017 30.03 846 24.98 14.8 58.6 73 10.1 50.2 -83.3 -3.28
05:17 1017 30.03 846 24.98 14.8 58.6 73 10.1 50.2 -83.4 -3.283
05:18 1017 30.03 847 25.01 14.7 58.5 74 10.2 50.4 -83.4 -3.283
05:19 1017 30.03 847 25.01 14.6 58.3 75 10.2 50.3 -83.4 -3.283
05:20 1017 30.03 847 25.01 14.6 58.2 75 10.2 50.4 -83.5 -3.287
05:21 1017 30.03 847 25.01 14.5 58.2 76 10.3 50.6 -83.4 -3.283
05:22 1017 30.03 847 25.01 14.5 58.1 77 10.6 51.1 -83.4 -3.283
05:23 1017 30.03 847 25.01 14.4 57.8 79 10.8 51.4 -83.4 -3.283
05:24 1018 30.06 847 25.01 14.2 57.6 80 10.9 51.7 -83.4 -3.283
05:25 1018 30.06 847 25.01 14.1 57.3 80 10.7 51.2 -83.5 -3.287
05:26 1018 30.06 847 25.01 14 57.2 80 10.7 51.3 -83.5 -3.287
05:27 1018 30.06 847 25.01 14 57.2 80 10.6 51.1 -83.4 -3.283
05:28 1017 30.03 847 25.01 14 57.3 80 10.6 51.1 -83.4 -3.283
05:29 1017 30.03 847 25.01 14.1 57.4 79 10.5 51 -83.3 -3.28
05:30 1017 30.03 847 25.01 14.1 57.4 77 10.3 50.5 -83.3 -3.28
05:31 1017 30.03 847 25.01 14.2 57.6 77 10.4 50.7 -83.3 -3.28
05:32 1017 30.03 847 25.01 14.3 57.7 78 10.6 51 -83.2 -3.276
05:33 1018 30.06 847 25.01 14.3 57.7 79 10.7 51.3 -83.1 -3.272
05:34 1018 30.06 847 25.01 14.2 57.5 79 10.5 51 -83.1 -3.272
05:35 1018 30.06 847 25.01 14.2 57.6 78 10.5 51 -83.1 -3.272
05:36 1018 30.06 847 25.01 14.3 57.7 76 10.1 50.2 -83.1 -3.272
05:37 1018 30.06 847 25.01 14.4 57.9 76 10.3 50.5 -83.1 -3.272
05:38 1018 30.06 847 25.01 14.4 57.9 77 10.4 50.8 -83.1 -3.272
05:39 1017 30.03 847 25.01 14.4 58 75 10 50 -83.3 -3.28
05:40 1017 30.03 847 25.01 14.5 58.1 74 10 49.9 -83.4 -3.283
05:41 1018 30.06 847 25.01 14.6 58.2 74 10.1 50.2 -83.6 -3.291
05:42 1018 30.06 847 25.01 14.6 58.3 74 10.1 50.1 -83.8 -3.299
05:43 1018 30.06 847 25.01 14.6 58.3 74 10.1 50.2 -84 -3.307
05:44 1018 30.06 847 25.01 14.6 58.3 75 10.3 50.5 -84.1 -3.311
05:45 1018 30.06 847 25.01 14.6 58.3 75 10.2 50.4 -84.3 -3.319
05:46 1018 30.06 847 25.01 14.6 58.3 75 10.2 50.4 -84.4 -3.323
05:47 1018 30.06 847 25.01 14.6 58.2 75 10.2 50.4 -84.6 -3.331
05:48 1018 30.06 847 25.01 14.5 58.1 75 10.2 50.4 -84.8 -3.339
05:49 1018 30.06 847 25.01 14.5 58.1 75 10.1 50.1 -84.9 -3.343
05:50 1018 30.06 847 25.01 14.5 58.1 75 10.2 50.3 -85 -3.346
05:51 1018 30.06 847 25.01 14.4 58 76 10.3 50.6 -85.1 -3.35
05:52 1018 30.06 847 25.01 14.4 57.9 76 10.3 50.6 -85.2 -3.354
05:53 1018 30.06 847 25.01 14.3 57.7 77 10.4 50.8 -85.3 -3.358
05:54 1018 30.06 847 25.01 14.2 57.5 77 10.3 50.5 -85.3 -3.358
05:55 1018 30.06 847 25.01 14.2 57.6 76 10.1 50.2 -85.4 -3.362
05:56 1018 30.06 847 25.01 14.3 57.8 77 10.3 50.5 -85.5 -3.366
05:57 1018 30.06 847 25.01 14.2 57.6 78 10.4 50.7 -85.5 -3.366
05:58 1017 30.03 847 25.01 14.1 57.4 77 10.2 50.4 -85.6 -3.37
05:59 1017 30.03 847 25.01 14.1 57.4 77 10.3 50.5 -85.6 -3.37
06:00 1017 30.03 847 25.01 14 57.3 77 10.2 50.3 -85.7 -3.374
06:01 1018 30.06 847 25.01 14 57.2 78 10.2 50.4 -85.7 -3.374
06:02 1018 30.06 847 25.01 14 57.1 79 10.4 50.7 -85.7 -3.374
06:03 1018 30.06 847 25.01 13.9 57.1 79 10.5 50.8 -85.8 -3.378
06:04 1018 30.06 847 25.01 13.9 57 79 10.4 50.7 -85.8 -3.378
06:05 1018 30.06 847 25.01 14 57.2 79 10.4 50.8 -85.8 -3.378
06:06 1018 30.06 847 25.01 14.2 57.5 77 10.3 50.5 -85.9 -3.382
06:07 1018 30.06 847 25.01 14.2 57.6 78 10.5 50.9 -85.9 -3.382
06:08 1018 30.06 847 25.01 14.1 57.4 78 10.4 50.8 -85.9 -3.382
06:09 1018 30.06 847 25.01 14.1 57.4 78 10.4 50.8 -85.9 -3.382
06:10 1018 30.06 847 25.01 14.1 57.4 77 10.1 50.2 -85.9 -3.382
06:11 1018 30.06 847 25.01 14.3 57.7 76 10.2 50.3 -86 -3.386
06:12 1018 30.06 847 25.01 14.3 57.7 78 10.5 51 -86 -3.386
06:13 1018 30.06 847 25.01 14.1 57.4 75 9.8 49.7 -86 -3.386
06:14 1018 30.06 847 25.01 14.3 57.7 76 10.2 50.4 -86.1 -3.39
06:15 1018 30.06 847 25.01 14.3 57.7 75 10 50 -86.1 -3.39
06:16 1018 30.06 847 25.01 14.5 58 72 9.5 49.2 -86.1 -3.39
06:17 1018 30.06 847 25.01 14.6 58.4 74 10.2 50.3 -86.2 -3.394
06:18 1018 30.06 847 25.01 14.5 58 76 10.3 50.5 -86.2 -3.394
06:19 1018 30.06 847 25.01 14.3 57.8 74 9.8 49.6 -86.2 -3.394
06:20 1018 30.06 847 25.01 14.3 57.7 74 9.8 49.6 -86.2 -3.394
06:21 1018 30.06 847 25.01 14.4 58 75 10.1 50.1 -86.3 -3.398
06:22 1018 30.06 847 25.01 14.4 57.8 75 10 50.1 -86.3 -3.398
06:23 1018 30.06 847 25.01 14.3 57.8 76 10.2 50.3 -86.3 -3.398
06:24 1018 30.06 847 25.01 14.3 57.7 77 10.3 50.5 -86.4 -3.402
06:25 1018 30.06 847 25.01 14.3 57.7 76 10.1 50.2 -86.4 -3.402
06:26 1018 30.06 847 25.01 14.3 57.7 77 10.3 50.5 -86.4 -3.402
06:27 1017 30.03 847 25.01 14.3 57.7 77 10.2 50.4 -86.4 -3.402
06:28 1017 30.03 847 25.01 14.2 57.6 77 10.2 50.4 -86.4 -3.402
06:29 1017 30.03 847 25.01 14.2 57.6 76 10.1 50.2 -86.4 -3.402
06:30 1017 30.03 847 25.01 14.3 57.7 76 10.1 50.1 -86.4 -3.402
06:31 1017 30.03 846 24.98 14.3 57.7 75 9.9 49.9 -86.4 -3.402
06:32 1017 30.03 846 24.98 14.4 57.9 74 10 49.9 -86.4 -3.402
06:33 1017 30.03 846 24.98 14.5 58 75 10.1 50.2 -86.4 -3.402
06:34 1017 30.03 846 24.98 14.5 58 75 10.1 50.2 -86.2 -3.394
06:35 1017 30.03 846 24.98 14.4 57.9 76 10.2 50.4 -85.4 -3.362
06:36 1017 30.03 846 24.98 14.4 57.8 77 10.5 50.9 -85 -3.346
06:37 1017 30.03 846 24.98 14.2 57.6 78 10.4 50.7 -84.7 -3.335
06:38 1017 30.03 846 24.98 14.2 57.5 78 10.3 50.6 -84.6 -3.331
06:39 1017 30.03 846 24.98 14.1 57.4 78 10.4 50.8 -84.7 -3.335
06:40 1017 30.03 846 24.98 14.1 57.3 79 10.6 51.1 -84.8 -3.339
06:41 1017 30.03 846 24.98 13.9 57 79 10.4 50.7 -84.9 -3.343
06:42 1017 30.03 846 24.98 13.8 56.9 80 10.4 50.7 -85 -3.346
06:43 1017 30.03 846 24.98 13.8 56.8 79 10.3 50.5 -85.1 -3.35
06:44 1017 30.03 846 24.98 13.8 56.8 79 10.2 50.4 -85.2 -3.354
06:45 1017 30.03 846 24.98 13.8 56.8 78 10.1 50.2 -85.3 -3.358
06:46 1017 30.03 846 24.98 13.9 57 78 10.1 50.3 -85.4 -3.362
06:47 1017 30.03 846 24.98 13.9 57.1 77 10.1 50.2 -85.5 -3.366
06:48 1017 30.03 846 24.98 13.9 57.1 77 10.1 50.1 -85.6 -3.37
06:49 1017 30.03 846 24.98 13.9 57 77 10 50 -85.7 -3.374
06:50 1017 30.03 846 24.98 13.9 57 77 10 50.1 -85.7 -3.374
06:51 1017 30.03 846 24.98 13.7 56.6 78 9.9 49.8 -85.8 -3.378
06:52 1017 30.03 846 24.98 13.3 55.9 80 9.9 49.8 -85.8 -3.378
06:53 1017 30.03 846 24.98 13 55.3 82 9.9 49.9 -85.8 -3.378
06:54 1017 30.03 846 24.98 12.7 54.9 82 9.8 49.6 -85.9 -3.382
06:55 1017 30.03 846 24.98 12.6 54.8 83 9.9 49.7 -85.9 -3.382
06:56 1017 30.03 846 24.98 12.5 54.5 85 10 50 -85.9 -3.382
06:57 1017 30.03 846 24.98 12.5 54.4 85 10 50 -85.8 -3.378
06:58 1017 30.03 846 24.98 12.5 54.5 85 10 50 -85.8 -3.378
06:59 1017 30.03 846 24.98 12.5 54.6 84 10 50 -85.7 -3.374
07:00 1017 30.03 846 24.98 12.5 54.5 84 9.9 49.9 -85.7 -3.374
07:01 1017 30.03 846 24.98 12.5 54.5 84 9.9 49.9 -85.7 -3.374
07:02 1017 30.03 846 24.98 12.6 54.6 84 9.9 49.8 -85.7 -3.374
07:03 1017 30.03 846 24.98 12.6 54.8 83 9.9 49.9 -85.6 -3.37
07:04 1017 30.03 846 24.98 12.8 55 83 9.9 49.9 -85.6 -3.37
07:05 1017 30.03 846 24.98 12.8 55 82 9.9 49.7 -85.6 -3.37
07:06 1017 30.03 846 24.98 12.9 55.1 82 9.9 49.8 -85.6 -3.37
07:07 1017 30.03 846 24.98 12.9 55.1 82 9.9 49.9 -85.6 -3.37
07:08 1017 30.03 846 24.98 12.9 55.2 83 10.1 50.1 -85.7 -3.374
07:09 1017 30.03 846 24.98 12.9 55.2 83 10.1 50.2 -85.7 -3.374
07:10 1017 30.03 846 24.98 13 55.3 82 10.1 50.1 -85.7 -3.374
07:11 1017 30.03 846 24.98 13.1 55.6 81 10 50 -85.8 -3.378
07:12 1017 30.03 846 24.98 13.4 56.1 79 9.8 49.7 -85.8 -3.378
07:13 1017 30.03 846 24.98 13.7 56.6 79 10.1 50.1 -85.9 -3.382
07:14 1017 30.03 846 24.98 13.8 56.9 78 10.2 50.3 -86 -3.386
07:15 1017 30.03 846 24.98 13.9 57 79 10.3 50.5 -86 -3.386
07:16 1017 30.03 846 24.98 13.9 57 79 10.3 50.6 -86.1 -3.39
07:17 1017 30.03 846 24.98 13.8 56.9 79 10.3 50.5 -86.2 -3.394
07:18 1017 30.03 846 24.98 13.9 57 79 10.4 50.7 -86.2 -3.394
07:19 1017 30.03 846 24.98 13.9 57 78 10.2 50.3 -86.1 -3.39
07:20 1017 30.03 846 24.98 14 57.1 78 10.1 50.2 -85.8 -3.378
07:21 1017 30.03 846 24.98 14.1 57.4 77 10.1 50.2 -85.2 -3.354
07:22 1017 30.03 846 24.98 14.2 57.6 76 10.1 50.3 -84.4 -3.323
07:23 1017 30.03 846 24.98 14.4 57.9 75 10.1 50.2 -84.6 -3.331
07:24 1017 30.03 846 24.98 14.6 58.2 74 10.1 50.2 -84.5 -3.327
07:25 1017 30.03 846 24.98 14.7 58.4 74 10 50.1 -83.8 -3.299
07:26 1017 30.03 846 24.98 14.8 58.6 73 10.1 50.1 -83.4 -3.283
07:27 1017 30.03 847 25.01 14.9 58.8 72 10 50 -82.9 -3.264
07:28 1017 30.03 847 25.01 15 59 71 9.8 49.6 -83.3 -3.28
07:29 1018 30.06 847 25.01 15 59 72 10 49.9 -83.4 -3.283
07:30 1018 30.06 847 25.01 15 59 72 10 49.9 -82 -3.228
07:31 1018 30.06 847 25.01 15 59 73 10.3 50.6 -81 -3.189
07:32 1018 30.06 847 25.01 14.9 58.8 75 10.5 50.9 -81.6 -3.213
07:33 1018 30.06 847 25.01 14.7 58.4 77 10.7 51.3 -82.8 -3.26
07:34 1018 30.06 847 25.01 14.5 58.1 78 10.7 51.3 -83.3 -3.28
07:35 1018 30.06 847 25.01 14.3 57.8 78 10.6 51.1 -83.5 -3.287
07:36 1018 30.06 847 25.01 14.2 57.6 78 10.4 50.7 -83.5 -3.287
07:37 1018 30.06 847 25.01 14.2 57.6 79 10.7 51.3 -83.6 -3.291
07:38 1018 30.06 847 25.01 14.2 57.5 79 10.6 51.1 -83.6 -3.291
07:39 1018 30.06 847 25.01 14.1 57.5 79 10.5 50.9 -83.6 -3.291
07:40 1018 30.06 847 25.01 14.1 57.4 78 10.3 50.6 -83.5 -3.287
07:41 1018 30.06 847 25.01 14.2 57.5 78 10.3 50.6 -83.5 -3.287
07:42 1017 30.03 847 25.01 14.2 57.5 77 10.3 50.6 -83.5 -3.287
07:43 1017 30.03 847 25.01 14.2 57.6 78 10.4 50.7 -83.5 -3.287
07:44 1017 30.03 847 25.01 14.2 57.5 79 10.7 51.2 -83.4 -3.283
07:45 1017 30.03 847 25.01 14.1 57.4 79 10.5 50.9 -83.4 -3.283
07:46 1017 30.03 847 25.01 14.2 57.5 78 10.4 50.7 -83.4 -3.283
07:47 1018 30.06 847 25.01 14.1 57.4 77 10.1 50.3 -83.4 -3.283
07:48 1018 30.06 847 25.01 14.2 57.5 76 10.1 50.1 -83.4 -3.283
07:49 1018 30.06 847 25.01 14.3 57.7 76 10.2 50.4 -83.4 -3.283
07:50 1018 30.06 847 25.01 14.2 57.6 76 10 50 -83.4 -3.283
07:51 1018 30.06 847 25.01 14.2 57.6 76 10.1 50.2 -83.4 -3.283
07:52 1017 30.03 847 25.01 14.2 57.6 76 10.1 50.3 -83.4 -3.283
07:53 1017 30.03 847 25.01 14.2 57.6 75 9.8 49.7 -83.4 -3.283
07:54 1017 30.03 847 25.01 14.3 57.8 73 9.6 49.3 -83.4 -3.283
07:55 1017 30.03 847 25.01 14.5 58.2 72 9.6 49.3 -83.4 -3.283
07:56 1017 30.03 846 24.98 14.7 58.4 72 9.8 49.6 -83.4 -3.283
07:57 1017 30.03 847 25.01 14.7 58.5 73 9.9 49.9 -83.4 -3.283
07:58 1017 30.03 847 25.01 14.7 58.5 73 9.9 49.9 -83.4 -3.283
07:59 1017 30.03 847 25.01 14.6 58.3 74 10.1 50.2 -83.4 -3.283
08:00 1017 30.03 847 25.01 14.6 58.2 75 10.2 50.4 -83.5 -3.287
08:01 1017 30.03 847 25.01 14.6 58.2 76 10.4 50.7 -83.5 -3.287
08:02 1017 30.03 847 25.01 14.6 58.2 74 10.1 50.2 -83.5 -3.287
08:03 1017 30.03 847 25.01 14.6 58.2 73 9.8 49.6 -83.5 -3.287
08:04 1017 30.03 847 25.01 14.6 58.4 73 9.9 49.9 -83.5 -3.287
08:05 1017 30.03 847 25.01 14.7 58.5 71 9.6 49.3 -83.5 -3.287
08:06 1017 30.03 846 24.98 14.9 58.8 71 9.8 49.6 -83.5 -3.287
08:07 1017 30.03 846 24.98 15.1 59.1 70 9.6 49.3 -83.5 -3.287
08:08 1017 30.03 846 24.98 15.2 59.3 71 9.9 49.9 -83.5 -3.287
08:09 1017 30.03 846 24.98 15.3 59.5 69 9.6 49.3 -83.5 -3.287
08:10 1017 30.03 846 24.98 15.5 59.8 67 9.4 48.9 -83.5 -3.287
08:11 1017 30.03 846 24.98 15.7 60.2 63 8.7 47.6 -83.6 -3.291
08:12 1017 30.03 846 24.98 15.9 60.7 63 8.9 48.1 -83.6 -3.291
08:13 1017 30.03 846 24.98 16.1 61 64 9.4 48.9 -83.6 -3.291
08:14 1017 30.03 846 24.98 16.1 61 63 9.1 48.4 -83.6 -3.291
08:15 1017 30.03 846 24.98 16.2 61.2 63 9.2 48.6 -83.6 -3.291
08:16 1017 30.03 846 24.98 16.2 61.2 63 9.3 48.7 -83.7 -3.295
08:17 1017 30.03 846 24.98 16.3 61.3 61 8.7 47.7 -83.7 -3.295
08:18 1017 30.03 846 24.98 16.4 61.4 62 9.1 48.4 -83.7 -3.295
08:19 1017 30.03 846 24.98 16.3 61.4 63 9.3 48.7 -83.7 -3.295
08:20 1017 30.03 846 24.98 16.3 61.3 62 9 48.3 -83.7 -3.295
08:21 1017 30.03 846 24.98 16.4 61.4 62 9 48.3 -83.7 -3.295
08:22 1017 30.03 846 24.98 16.4 61.5 63 9.4 49 -83.7 -3.295
08:23 1017 30.03 846 24.98 16.4 61.5 65 9.8 49.7 -83.7 -3.295
08:24 1017 30.03 846 24.98 16.4 61.5 63 9.4 48.9 -83.7 -3.295
08:25 1017 30.03 846 24.98 16.5 61.7 62 9.3 48.7 -83.7 -3.295
08:26 1017 30.03 846 24.98 16.5 61.7 64 9.7 49.4 -83.7 -3.295
08:27 1017 30.03 846 24.98 16.5 61.7 65 10 49.9 -83.7 -3.295
08:28 1017 30.03 846 24.98 16.5 61.7 66 10.2 50.3 -83.7 -3.295
08:29 1017 30.03 846 24.98 16.6 61.9 62 9.4 48.9 -83.7 -3.295
08:30 1017 30.03 846 24.98 16.8 62.2 63 9.7 49.5 -83.7 -3.295
08:31 1017 30.03 846 24.98 16.9 62.4 64 10 50.1 -83.7 -3.295
08:32 1017 30.03 846 24.98 16.9 62.5 64 10.1 50.2 -83.7 -3.295
08:33 1017 30.03 846 24.98 17 62.5 61 9.6 49.3 -83.7 -3.295
08:34 1017 30.03 846 24.98 17 62.6 64 10.1 50.3 -83.7 -3.295
08:35 1017 30.03 846 24.98 17 62.6 62 9.8 49.7 -83.6 -3.291
08:36 1017 30.03 846 24.98 17 62.5 63 10 49.9 -83.6 -3.291
08:37 1017 30.03 846 24.98 17 62.5 63 9.9 49.7 -83.6 -3.291
08:38 1017 30.03 846 24.98 16.9 62.4 65 10.4 50.7 -83.7 -3.295
08:39 1017 30.03 846 24.98 16.8 62.3 65 10.3 50.6 -83.8 -3.299
08:40 1017 30.03 847 25.01 16.8 62.2 66 10.4 50.7 -83.9 -3.303
08:41 1017 30.03 847 25.01 16.8 62.2 67 10.6 51.1 -84.1 -3.311
08:42 1017 30.03 847 25.01 16.8 62.2 67 10.7 51.3 -84.3 -3.319
08:43 1017 30.03 847 25.01 16.9 62.3 69 11.1 52 -84.5 -3.327
08:44 1017 30.03 847 25.01 16.9 62.5 68 11 51.8 -84.7 -3.335
08:45 1017 30.03 847 25.01 17 62.5 67 11 51.8 -84.8 -3.339
08:46 1017 30.03 847 25.01 17 62.6 70 11.5 52.7 -85 -3.346
08:47 1017 30.03 847 25.01 17.1 62.7 67 10.9 51.6 -85.1 -3.35
08:48 1017 30.03 847 25.01 17.1 62.7 64 10.2 50.4 -85.2 -3.354
08:49 1017 30.03 847 25.01 17.1 62.7 65 10.5 50.9 -85.3 -3.358
08:50 1017 30.03 847 25.01 17 62.7 67 11 51.8 -85.4 -3.362
08:51 1017 30.03 847 25.01 17 62.6 67 10.9 51.7 -85.5 -3.366
08:52 1017 30.03 847 25.01 17 62.6 66 10.8 51.4 -85.6 -3.37
08:53 1017 30.03 846 24.98 17 62.5 67 10.8 51.4 -85.7 -3.374
08:54 1017 30.03 846 24.98 16.9 62.5 68 11.1 52 -85.7 -3.374
08:55 1017 30.03 846 24.98 17 62.5 68 11.2 52.1 -85.8 -3.378
08:56 1017 30.03 846 24.98 17 62.6 68 11.1 51.9 -85.8 -3.378
08:57 1017 30.03 846 24.98 17 62.6 67 10.9 51.7 -85.8 -3.378
08:58 1017 30.03 846 24.98 17 62.6 68 11 51.9 -85.9 -3.382
08:59 1017 30.03 846 24.98 17 62.6 67 10.9 51.6 -85.9 -3.382
09:00 1017 30.03 846 24.98 17.1 62.7 69 11.4 52.5 -85.9 -3.382
09:01 1017 30.03 846 24.98 17.3 63.1 67 11.1 51.9 -86 -3.386
09:02 1017 30.03 846 24.98 17.5 63.5 66 11.1 52.1 -86 -3.386
09:03 1017 30.03 847 25.01 17.8 64 63 10.7 51.2 -86 -3.386
09:04 1017 30.03 846 24.98 17.9 64.3 60 10.2 50.3 -86 -3.386
09:05 1017 30.03 846 24.98 17.9 64.2 63 10.9 51.6 -86.1 -3.39
09:06 1017 30.03 846 24.98 17.9 64.2 64 11 51.9 -86.1 -3.39
09:07 1017 30.03 846 24.98 18 64.4 63 10.9 51.6 -86.2 -3.394
09:08 1017 30.03 846 24.98 18.2 64.8 63 11.2 52.2 -86.2 -3.394
09:09 1017 30.03 846 24.98 18.3 65 62 11 51.8 -86.2 -3.394
09:10 1017 30.03 846 24.98 18.5 65.4 63 11.5 52.7 -86.2 -3.394
09:11 1017 30.03 846 24.98 18.8 65.8 61 11.2 52.1 -86.2 -3.394
09:12 1017 30.03 846 24.98 18.9 66 58 10.6 51 -86.3 -3.398
09:13 1017 30.03 846 24.98 19.1 66.3 58 10.7 51.3 -86.3 -3.398
09:14 1017 30.03 846 24.98 19.2 66.5 58 10.7 51.3 -86.3 -3.398
09:15 1017 30.03 846 24.98 19.2 66.6 59 11.1 51.9 -86.3 -3.398
09:16 1017 30.03 846 24.98 19.2 66.5 60 11.3 52.4 -86.3 -3.398
09:17 1017 30.03 846 24.98 19.2 66.6 57 10.6 51.1 -86.3 -3.398
09:18 1017 30.03 846 24.98 19.3 66.7 61 11.6 52.8 -86.3 -3.398
09:19 1017 30.03 846 24.98 19.3 66.7 60 11.3 52.4 -86.3 -3.398
09:20 1017 30.03 846 24.98 19.3 66.8 58 11 51.9 -86.4 -3.402
09:21 1017 30.03 846 24.98 19.3 66.8 63 12.1 53.8 -86.3 -3.398
09:22 1017 30.03 846 24.98 19.4 66.9 58 11.1 51.9 -86.3 -3.398
09:23 1017 30.03 846 24.98 19.4 66.9 57 10.8 51.4 -86.3 -3.398
09:24 1017 30.03 846 24.98 19.4 66.8 59 11.2 52.2 -86.3 -3.398
09:25 1017 30.03 846 24.98 19.4 66.9 56 10.6 51.1 -86.3 -3.398
09:26 1017 30.03 846 24.98 19.4 66.9 59 11.3 52.4 -86.3 -3.398
09:27 1017 30.03 846 24.98 19.6 67.2 58 11.2 52.2 -86.3 -3.398
09:28 1017 30.03 846 24.98 19.7 67.5 58 11.3 52.4 -86.3 -3.398
09:29 1017 30.03 846 24.98 19.8 67.6 58 11.4 52.5 -86.3 -3.398
09:30 1017 30.03 846 24.98 19.8 67.6 59 11.6 52.8 -86.2 -3.394
09:31 1017 30.03 846 24.98 19.8 67.7 57 11.1 52 -86.2 -3.394
09:32 1017 30.03 846 24.98 19.8 67.7 55 10.6 51 -86.2 -3.394
09:33 1017 30.03 846 24.98 19.9 67.7 58 11.6 52.8 -86.2 -3.394
09:34 1017 30.03 846 24.98 20 67.9 51 9.6 49.3 -86.2 -3.394
09:35 1017 30.03 846 24.98 20 68 58 11.6 52.8 -86.1 -3.39
09:36 1017 30.03 846 24.98 20 68.1 52 10 50 -86.1 -3.39
09:37 1017 30.03 846 24.98 20.1 68.1 56 11.2 52.1 -86.1 -3.39
09:38 1017 30.03 846 24.98 20.3 68.5 56 11.2 52.2 -86.1 -3.39
09:39 1017 30.03 846 24.98 20.6 69 53 10.7 51.3 -86 -3.386
09:40 1017 30.03 846 24.98 20.8 69.4 50 10.2 50.4 -86 -3.386
09:41 1017 30.03 846 24.98 20.9 69.6 48 9.6 49.2 -86 -3.386
09:42 1017 30.03 846 24.98 21.1 70 46 9.1 48.3 -85.9 -3.382
09:43 1017 30.03 846 24.98 21.1 70 46 9.3 48.7 -85.9 -3.382
09:44 1017 30.03 846 24.98 21 69.8 46 9.1 48.4 -85.9 -3.382
09:45 1017 30.03 846 24.98 21 69.8 41 7.5 45.6 -85.9 -3.382
09:46 1017 30.03 846 24.98 21 69.7 47 9.5 49.2 -85.9 -3.382
09:47 1017 30.03 846 24.98 21 69.7 46 8.9 48.1 -85.8 -3.378
09:48 1017 30.03 846 24.98 21 69.8 44 8.3 47 -85.8 -3.378
09:49 1017 30.03 846 24.98 21 69.7 43 8 46.4 -85.8 -3.378
09:50 1017 30.03 846 24.98 20.9 69.7 42 7.9 46.1 -85.7 -3.374
09:51 1017 30.03 846 24.98 20.8 69.5 46 9.1 48.3 -85.7 -3.374
09:52 1017 30.03 846 24.98 20.9 69.6 52 10.7 51.2 -85.7 -3.374
09:53 1017 30.03 846 24.98 21 69.8 54 11.3 52.4 -85.6 -3.37
09:54 1017 30.03 846 24.98 21 69.8 52 10.8 51.5 -85.6 -3.37
09:55 1017 30.03 846 24.98 21.1 69.9 50 10.3 50.5 -85.5 -3.366
09:56 1017 30.03 846 24.98 21.1 70 44 8.6 47.5 -85.5 -3.366
09:57 1017 30.03 846 24.98 21.2 70.1 42 7.9 46.2 -85.5 -3.366
09:58 1017 30.03 846 24.98 21.1 70.1 53 11.4 52.6 -85.4 -3.362
09:59 1017 30.03 846 24.98 21.1 70 50 10.5 50.9 -85.4 -3.362
10:00 1017 30.03 846 24.98 21.1 70 49 10.1 50.1 -85.3 -3.358
10:01 1017 30.03 846 24.98 21.1 70 46 9.2 48.5 -85.3 -3.358
10:02 1017 30.03 846 24.98 21.1 70 44 8.4 47.2 -85.2 -3.354
10:03 1017 30.03 846 24.98 21.2 70.2 48 10 50 -85.2 -3.354
10:04 1017 30.03 846 24.98 21.3 70.3 50 10.4 50.8 -85.1 -3.35
10:05 1017 30.03 846 24.98 21.3 70.4 45 9.2 48.5 -85.1 -3.35
10:06 1017 30.03 846 24.98 21.4 70.4 47 9.8 49.6 -85 -3.346
10:07 1017 30.03 846 24.98 21.4 70.5 49 10.5 51 -85 -3.346
10:08 1017 30.03 846 24.98 21.4 70.5 44 8.7 47.7 -84.9 -3.343
10:09 1017 30.03 846 24.98 21.4 70.5 48 9.9 49.9 -84.9 -3.343
10:10 1017 30.03 846 24.98 21.4 70.5 52 11.4 52.5 -84.8 -3.339
10:11 1017 30.03 846 24.98 21.5 70.6 47 9.8 49.6 -84.8 -3.339
10:12 1017 30.03 846 24.98 21.6 70.8 44 9.1 48.3 -84.7 -3.335
10:13 1017 30.03 846 24.98 21.5 70.8 46 9.5 49 -84.7 -3.335
10:14 1017 30.03 846 24.98 21.5 70.8 49 10.6 51.1 -84.6 -3.331
10:15 1017 30.03 846 24.98 21.6 70.8 49 10.6 51.2 -84.6 -3.331
10:16 1017 30.03 846 24.98 21.6 70.9 48 10.4 50.7 -84.5 -3.327
10:17 1017 30.03 846 24.98 21.5 70.8 48 10.1 50.3 -84.5 -3.327
10:18 1017 30.03 846 24.98 21.6 70.8 47 9.9 49.9 -84.4 -3.323
10:19 1017 30.03 846 24.98 21.5 70.7 53 11.5 52.8 -84.4 -3.323
10:20 1017 30.03 846 24.98 21.5 70.7 51 11.1 52 -84.3 -3.319
10:21 1017 30.03 846 24.98 21.5 70.6 50 10.7 51.3 -84.3 -3.319
10:22 1017 30.03 846 24.98 21.5 70.7 59 13.3 56 -84.2 -3.315
10:23 1017 30.03 846 24.98 21.6 70.8 53 11.7 53.1 -84.2 -3.315
10:24 1017 30.03 846 24.98 21.6 70.8 51 11.1 52 -84.1 -3.311
10:25 1017 30.03 846 24.98 21.5 70.7 51 11 51.8 -84 -3.307
10:26 1017 30.03 846 24.98 21.5 70.7 47 10 50 -84 -3.307
10:27 1017 30.03 846 24.98 21.5 70.8 54 12.1 53.7 -83.9 -3.303
10:28 1017 30.03 846 24.98 21.6 70.8 51 11 51.8 -83.9 -3.303
10:29 1017 30.03 846 24.98 21.6 70.8 50 10.7 51.3 -83.9 -3.303
10:30 1017 30.03 846 24.98 21.5 70.7 51 10.9 51.7 -83.8 -3.299
10:31 1017 30.03 846 24.98 21.5 70.6 46 9.4 48.9 -83.8 -3.299
10:32 1017 30.03 846 24.98 21.4 70.5 51 10.9 51.7 -83.7 -3.295
10:33 1017 30.03 846 24.98 21.4 70.6 51 10.9 51.7 -83.7 -3.295
10:34 1017 30.03 846 24.98 21.5 70.6 47 10 49.9 -83.6 -3.291
10:35 1017 30.03 846 24.98 21.5 70.8 43 8.8 47.8 -83.6 -3.291
10:36 1017 30.03 846 24.98 21.6 70.8 44 9 48.2 -83.6 -3.291
10:37 1017 30.03 846 24.98 21.6 70.8 43 8.6 47.4 -83.5 -3.287
10:38 1017 30.03 846 24.98 21.6 70.8 43 8.5 47.3 -83.5 -3.287
10:39 1017 30.03 846 24.98 21.6 70.8 47 9.9 49.8 -83.4 -3.283
10:40 1017 30.03 846 24.98 21.5 70.8 47 9.8 49.6 -83.4 -3.283
10:41 1017 30.03 846 24.98 21.6 70.8 44 8.9 48 -83.4 -3.283
10:42 1017 30.03 846 24.98 21.6 70.8 47 9.9 49.8 -83.3 -3.28
10:43 1017 30.03 846 24.98 21.7 71.1 50 11.1 51.9 -83.3 -3.28
10:44 1017 30.03 846 24.98 21.9 71.5 44 9.4 49 -83.2 -3.276
10:45 1017 30.03 846 24.98 21.9 71.5 44 9.2 48.6 -83.2 -3.276
10:46 1017 30.03 846 24.98 21.8 71.3 48 10.6 51 -83.2 -3.276
10:47 1017 30.03 846 24.98 21.8 71.2 43 8.9 48.1 -83.1 -3.272
10:48 1017 30.03 846 24.98 21.8 71.3 45 9.6 49.2 -83.1 -3.272
10:49 1017 30.03 846 24.98 21.8 71.3 45 9.5 49.2 -83 -3.268
10:50 1017 30.03 846 24.98 21.9 71.3 41 8 46.5 -83 -3.268
10:51 1017 30.03 846 24.98 21.9 71.3 48 10.4 50.8 -83 -3.268
10:52 1017 30.03 846 24.98 22 71.5 49 10.8 51.5 -82.9 -3.264
10:53 1017 30.03 846 24.98 22 71.7 46 10.1 50.3 -82.9 -3.264
10:54 1017 30.03 846 24.98 22.1 71.8 43 9 48.1 -82.8 -3.26
10:55 1017 30.03 846 24.98 22.1 71.8 45 9.8 49.6 -82.8 -3.26
10:56 1017 30.03 846 24.98 22.1 71.7 46 9.9 49.9 -82.8 -3.26
10:57 1017 30.03 846 24.98 22.1 71.8 50 11.4 52.4 -82.7 -3.256
10:58 1017 30.03 846 24.98 22.1 71.8 47 10.5 50.9 -82.7 -3.256
10:59 1017 30.03 846 24.98 22.1 71.8 50 11.5 52.7 -82.6 -3.252
11:00 1017 30.03 846 24.98 22 71.6 46 9.9 49.9 -82.6 -3.252
11:01 1017 30.03 846 24.98 22 71.7 48 10.7 51.2 -82.5 -3.248
11:02 1017 30.03 846 24.98 22.2 71.9 49 11.1 52 -82.5 -3.248
11:03 1017 30.03 846 24.98 22.3 72.1 45 9.9 49.8 -82.4 -3.244
11:04 1017 30.03 846 24.98 22.3 72.1 49 11.3 52.4 -82.4 -3.244
11:05 1017 30.03 846 24.98 22.3 72.1 52 12.1 53.8 -82.3 -3.24
11:06 1017 30.03 846 24.98 22.4 72.3 47 10.6 51.2 -82.3 -3.24
11:07 1017 30.03 846 24.98 22.3 72.2 43 9.4 48.9 -82.2 -3.236
11:08 1017 30.03 846 24.98 22.2 72 45 10 49.9 -82.2 -3.236
11:09 1017 30.03 846 24.98 22.1 71.9 45 9.9 49.9 -82.1 -3.232
11:10 1017 30.03 846 24.98 22.2 71.9 45 9.9 49.8 -82.1 -3.232
11:11 1017 30.03 846 24.98 22.1 71.8 43 9 48.2 -82 -3.228
11:12 1017 30.03 846 24.98 22.2 71.9 43 9.3 48.7 -82 -3.228
11:13 1017 30.03 846 24.98 22.1 71.8 45 9.6 49.3 -81.9 -3.224
11:14 1017 30.03 846 24.98 22.1 71.7 50 11.4 52.5 -81.9 -3.224
11:15 1017 30.03 846 24.98 22.2 72 44 9.6 49.3 -81.8 -3.22
11:16 1017 30.03 846 24.98 22.3 72.1 45 10 50 -81.8 -3.22
11:17 1017 30.03 846 24.98 22.4 72.4 42 9.2 48.5 -81.7 -3.217
11:18 1017 30.03 846 24.98 22.5 72.4 41 8.8 47.8 -81.7 -3.217
11:19 1017 30.03 846 24.98 22.5 72.5 46 10.5 50.8 -81.6 -3.213
11:20 1017 30.03 846 24.98 22.5 72.5 41 8.9 48.1 -81.6 -3.213
11:21 1017 30.03 846 24.98 22.5 72.4 49 11.3 52.3 -81.5 -3.209
11:22 1017 30.03 846 24.98 22.5 72.6 47 10.7 51.2 -81.5 -3.209
11:23 1017 30.03 846 24.98 22.6 72.6 44 9.8 49.6 -81.4 -3.205
11:24 1017 30.03 846 24.98 22.5 72.5 42 9.1 48.4 -81.4 -3.205
11:25 1017 30.03 846 24.98 22.4 72.3 43 9.5 49.1 -81.4 -3.205
11:26 1017 30.03 846 24.98 22.3 72.2 45 10 49.9 -81.3 -3.201
11:27 1017 30.03 846 24.98 22.4 72.2 46 10.5 50.9 -81.2 -3.197
11:28 1017 30.03 846 24.98 22.5 72.4 44 9.7 49.5 -81.2 -3.197
11:29 1017 30.03 846 24.98 22.6 72.6 44 9.8 49.6 -81.1 -3.193
11:30 1017 30.03 846 24.98 22.6 72.6 44 10 50 -81.1 -3.193
11:31 1017 30.03 846 24.98 22.7 72.9 44 9.9 49.9 -81.1 -3.193
11:32 1017 30.03 846 24.98 22.9 73.2 45 10.5 50.8 -81 -3.189
11:33 1017 30.03 846 24.98 22.9 73.2 41 9 48.3 -80.9 -3.185
11:34 1017 30.03 846 24.98 22.8 73.1 42 9.4 48.8 -80.9 -3.185
11:35 1017 30.03 846 24.98 22.8 73.1 46 10.8 51.5 -80.9 -3.185
11:36 1017 30.03 846 24.98 22.9 73.1 42 9.6 49.3 -80.8 -3.181
11:37 1017 30.03 846 24.98 23 73.3 43 9.9 49.9 -80.8 -3.181
11:38 1017 30.03 846 24.98 23.1 73.6 41 9.5 49.1 -80.7 -3.177
11:39 1017 30.03 846 24.98 23.2 73.7 44 10.4 50.8 -80.7 -3.177
11:40 1017 30.03 846 24.98 23.1 73.6 39 8.7 47.6 -80.6 -3.173
11:41 1017 30.03 846 24.98 23.1 73.7 40 9.1 48.3 -80.6 -3.173
11:42 1017 30.03 846 24.98 23.2 73.8 42 9.6 49.3 -80.5 -3.169
11:43 1017 30.03 846 24.98 23.1 73.6 41 9.2 48.6 -80.5 -3.169
11:44 1017 30.03 846 24.98 23.1 73.5 38 8 46.5 -80.4 -3.165
11:45 1017 30.03 846 24.98 23 73.4 38 8.1 46.7 -80.4 -3.165
11:46 1017 30.03 846 24.98 23 73.4 41 9.4 48.9 -80.3 -3.161
11:47 1017 30.03 846 24.98 23 73.5 38 8.3 47 -80.3 -3.161
11:48 1016 30 846 24.98 23.1 73.6 40 9 48.2 -80.2 -3.157
11:49 1016 30 846 24.98 23.2 73.8 44 10.6 51 -80.1 -3.154
11:50 1016 30 846 24.98 23.4 74.2 43 10.4 50.8 -80.1 -3.154
11:51 1016 30 846 24.98 23.4 74.1 39 8.8 47.8 -80.1 -3.154
11:52 1016 30 846 24.98 23.3 73.9 41 9.4 49 -80 -3.15
11:53 1016 30 846 24.98 23.4 74 39 8.7 47.7 -79.9 -3.146
11:54 1016 30 846 24.98 23.5 74.3 41 9.8 49.7 -79.9 -3.146
11:55 1016 30 846 24.98 23.6 74.4 38 8.5 47.3 -79.8 -3.142
11:56 1016 30 846 24.98 23.6 74.4 38 8.5 47.3 -79.8 -3.142
11:57 1016 30 846 24.98 23.6 74.6 44 10.9 51.7 -79.7 -3.138
11:58 1016 30 846 24.98 23.8 74.9 37 8.6 47.4 -79.7 -3.138
11:59 1016 30 846 24.98 23.7 74.7 35 7.6 45.7 -79.6 -3.134
12:00 1016 30 846 24.98 23.8 74.8 36 8.2 46.7 -79.6 -3.134
12:01 1016 30 846 24.98 23.8 74.9 40 9.8 49.6 -79.5 -3.13
12:02 1016 30 846 24.98 23.8 74.8 37 8.3 47 -79.4 -3.126
12:03 1016 30 846 24.98 23.7 74.7 38 8.6 47.6 -79.4 -3.126
12:04 1016 30 845 24.95 23.7 74.7 39 9.3 48.8 -79.4 -3.126
12:05 1016 30 846 24.98 23.8 74.8 35 7.6 45.6 -79.3 -3.122
12:06 1016 30 846 24.98 23.8 74.8 40 9.6 49.3 -79.2 -3.118
12:07 1016 30 846 24.98 23.8 74.9 42 10.4 50.8 -79.2 -3.118
12:08 1016 30 845 24.95 24 75.2 39 9.2 48.6 -79.1 -3.114
12:09 1016 30 845 24.95 24.2 75.5 37 8.8 47.8 -79 -3.11
12:10 1016 30 845 24.95 24.1 75.4 36 8.3 46.9 -79 -3.11
12:11 1016 30 845 24.95 23.9 75 40 9.5 49.1 -78.9 -3.106
12:12 1016 30 845 24.95 23.8 74.9 34 7.4 45.3 -78.9 -3.106
12:13 1016 30 845 24.95 23.8 74.8 33 7 44.6 -78.8 -3.102
12:14 1016 30 845 24.95 23.9 74.9 41 10.1 50.2 -78.7 -3.098
12:15 1016 30 845 24.95 24 75.2 39 9.4 49 -78.7 -3.098
12:16 1016 30 845 24.95 24.1 75.3 38 9.2 48.6 -78.6 -3.094
12:17 1016 30 845 24.95 24.1 75.3 38 8.9 48.1 -78.5 -3.091
12:18 1016 30 845 24.95 23.7 74.7 36 8.1 46.5 -78.5 -3.091
12:19 1016 30 845 24.95 23.6 74.4 39 9.1 48.4 -78.4 -3.087
12:20 1016 30 845 24.95 23.7 74.6 37 8.2 46.8 -78.4 -3.087
12:21 1016 30 845 24.95 23.8 74.8 38 8.8 47.8 -78.3 -3.083
12:22 1016 30 845 24.95 23.9 75.1 35 7.8 46.1 -78.3 -3.083
12:23 1016 30 845 24.95 24 75.2 39 9.4 49 -78.2 -3.079
12:24 1016 30 845 24.95 24.2 75.6 33 7 44.6 -78.2 -3.079
12:25 1016 30 845 24.95 24.3 75.8 33 7.2 44.9 -78.2 -3.079
12:26 1016 30 845 24.95 24.4 76 35 8.2 46.8 -78.1 -3.075
12:27 1016 30 845 24.95 24.6 76.2 38 9.6 49.2 -78.1 -3.075
12:28 1016 30 845 24.95 24.8 76.6 34 7.9 46.2 -78 -3.071
12:29 1016 30 845 24.95 24.9 76.8 38 10 50 -77.9 -3.067
12:30 1016 30 845 24.95 25.2 77.3 32 7.7 45.9 -77.9 -3.067
12:31 1016 30 845 24.95 25.3 77.5 34 8.7 47.7 -77.8 -3.063
12:32 1016 30 845 24.95 25.2 77.3 39 10.3 50.5 -77.8 -3.063
12:33 1016 30 845 24.95 25.2 77.4 36 9.5 49 -77.7 -3.059
12:34 1016 30 845 24.95 25.2 77.3 37 9.7 49.4 -77.7 -3.059
12:35 1016 30 845 24.95 25.1 77.2 40 10.9 51.6 -77.6 -3.055
12:36 1016 30 845 24.95 25.1 77.2 37 9.7 49.5 -77.6 -3.055
12:37 1016 30 845 24.95 25 77 32 7.4 45.3 -77.5 -3.051
12:38 1016 30 845 24.95 25 76.9 41 10.9 51.6 -77.5 -3.051
12:39 1016 30 845 24.95 25 77 32 7.4 45.3 -77.4 -3.047
12:40 1016 30 845 24.95 25 77.1 32 7.5 45.5 -77.4 -3.047
12:41 1016 30 845 24.95 25 77.1 31 7.2 44.9 -77.3 -3.043
12:42 1016 30 845 24.95 25 77 32 7.5 45.5 -77.2 -3.039
12:43 1016 30 845 24.95 25.1 77.1 32 7.2 45 -77.1 -3.035
12:44 1016 30 845 24.95 25 77.1 35 8.7 47.6 -77 -3.031
12:45 1016 30 845 24.95 25.2 77.3 34 8.3 46.9 -76.9 -3.028
12:46 1016 30 845 24.95 25.4 77.8 37 10.1 50.1 -76.9 -3.028
12:47 1016 30 845 24.95 25.5 77.8 35 9.3 48.7 -76.9 -3.028
12:48 1015 29.97 845 24.95 25.3 77.5 33 8.2 46.7 -76.8 -3.024
12:49 1015 29.97 845 24.95 25 77 31 7 44.6 -76.8 -3.024
12:50 1015 29.97 845 24.95 25 77 34 8.2 46.8 -76.8 -3.024
12:51 1015 29.97 845 24.95 25.1 77.1 31 7.2 45 -76.7 -3.02
12:52 1015 29.97 845 24.95 25.3 77.5 33 7.9 46.3 -76.6 -3.016
12:53 1015 29.97 844 24.92 25.5 77.8 32 7.8 46.1 -76.6 -3.016
12:54 1015 29.97 844 24.92 25.4 77.8 35 8.9 48.1 -76.5 -3.012
12:55 1015 29.97 844 24.92 25.3 77.6 33 7.9 46.3 -76.5 -3.012
12:56 1015 29.97 844 24.92 25.4 77.6 31 7.4 45.3 -76.4 -3.008
12:57 1015 29.97 844 24.92 25.4 77.7 37 9.7 49.5 -76.3 -3.004
12:58 1015 29.97 844 24.92 25.4 77.8 32 8 46.3 -76.3 -3.004
12:59 1015 29.97 844 24.92 25.4 77.8 31 7.3 45.1 -76.2 -3
13:00 1015 29.97 844 24.92 25.4 77.7 32 7.6 45.6 -76.2 -3
13:01 1015 29.97 844 24.92 25.4 77.7 32 7.8 46.1 -76.1 -2.996
13:02 1015 29.97 844 24.92 25.4 77.6 34 8.5 47.2 -76.1 -2.996
13:03 1015 29.97 844 24.92 25.4 77.8 31 7.5 45.4 -76 -2.992
13:04 1015 29.97 844 24.92 25.5 77.8 30 6.9 44.5 -76 -2.992
13:05 1015 29.97 844 24.92 25.4 77.6 33 8 46.5 -76 -2.992
13:06 1015 29.97 844 24.92 25.3 77.6 34 8.8 47.8 -75.9 -2.988
13:07 1015 29.97 844 24.92 25.4 77.7 31 7.4 45.4 -75.9 -2.988
13:08 1015 29.97 844 24.92 25.6 78.1 30 7 44.5 -75.8 -2.984
13:09 1015 29.97 844 24.92 25.6 78.1 33 8.5 47.2 -75.8 -2.984
13:10 1015 29.97 844 24.92 25.9 78.6 32 8.3 46.9 -75.7 -2.98
13:11 1015 29.97 844 24.92 26 78.8 31 7.8 46 -75.7 -2.98
13:12 1015 29.97 844 24.92 26.1 78.9 32 8.3 47 -75.7 -2.98
13:13 1015 29.97 844 24.92 26 78.9 29 6.9 44.3 -75.6 -2.976
13:14 1015 29.97 844 24.92 25.8 78.5 31 7.6 45.8 -75.6 -2.976
13:15 1015 29.97 844 24.92 25.8 78.4 35 9.5 49.1 -75.4 -2.969
13:16 1015 29.97 844 24.92 25.8 78.4 32 8.3 46.9 -75.3 -2.965
13:17 1015 29.97 844 24.92 25.8 78.5 31 7.7 45.8 -75.2 -2.961
13:18 1015 29.97 844 24.92 26 78.8 30 7.3 45.1 -75.2 -2.961
13:19 1015 29.97 844 24.92 26.2 79.1 32 8.6 47.4 -75.3 -2.965
13:20 1015 29.97 844 24.92 26.2 79.2 34 9.4 48.9 -75.3 -2.965
13:21 1015 29.97 844 24.92 26.1 78.9 29 7.1 44.9 -75.3 -2.965
13:22 1015 29.97 844 24.92 26 78.7 29 6.6 43.9 -75.3 -2.965
13:23 1015 29.97 844 24.92 25.9 78.6 33 8.7 47.7 -75.3 -2.965
13:24 1015 29.97 844 24.92 26.1 78.9 28 6.4 43.6 -75.3 -2.965
13:25 1015 29.97 844 24.92 26.3 79.3 30 7.3 45.2 -75.4 -2.969
13:26 1015 29.97 844 24.92 26.4 79.6 30 7.7 45.9 -75.3 -2.965
13:27 1015 29.97 844 24.92 26.7 80 30 7.8 46.1 -75.2 -2.961
13:28 1015 29.97 844 24.92 27 80.5 30 8.4 47.1 -75.1 -2.957
13:29 1015 29.97 844 24.92 27.3 81.1 27 7.2 44.9 -75 -2.953
13:30 1015 29.97 844 24.92 27.3 81.2 28 7.6 45.6 -75 -2.953
13:31 1015 29.97 844 24.92 27.3 81.1 30 8.6 47.5 -74.9 -2.949
13:32 1015 29.97 844 24.92 27.3 81.2 29 8 46.3 -74.9 -2.949
13:33 1015 29.97 844 24.92 27.3 81.1 28 7.7 45.9 -74.8 -2.945
13:34 1015 29.97 844 24.92 27.3 81.2 32 9.6 49.2 -74.6 -2.937
13:35 1015 29.97 844 24.92 27.2 80.9 31 8.8 47.8 -74.6 -2.937
13:36 1015 29.97 844 24.92 27.1 80.8 28 7.1 44.9 -74.5 -2.933
13:37 1015 29.97 844 24.92 27.1 80.7 32 9.1 48.3 -74.5 -2.933
13:38 1015 29.97 844 24.92 27.1 80.8 28 7.1 44.8 -74.4 -2.929
13:39 1015 29.97 844 24.92 26.9 80.5 28 7.1 44.8 -74.4 -2.929
13:40 1015 29.97 844 24.92 26.7 80.1 27 6.4 43.5 -74.3 -2.925
13:41 1015 29.97 844 24.92 26.6 79.8 30 7.7 45.9 -74.3 -2.925
13:42 1015 29.97 844 24.92 26.5 79.7 28 7 44.7 -74.2 -2.921
13:43 1015 29.97 844 24.92 26.6 79.8 32 8.9 48.1 -74.1 -2.917
13:44 1015 29.97 844 24.92 26.6 79.9 27 6.3 43.4 -74.1 -2.917
13:45 1015 29.97 844 24.92 26.6 79.9 31 8.2 46.7 -74 -2.913
13:46 1015 29.97 844 24.92 26.7 80.1 28 7.1 44.9 -73.9 -2.909
13:47 1015 29.97 844 24.92 26.7 80 30 8 46.4 -73.9 -2.909
13:48 1015 29.97 844 24.92 26.8 80.3 28 7.1 44.8 -73.8 -2.906
13:49 1015 29.97 844 24.92 26.9 80.3 29 7.5 45.5 -73.7 -2.902
13:50 1015 29.97 844 24.92 26.7 80 32 8.8 47.9 -73.6 -2.898
13:51 1015 29.97 844 24.92 26.4 79.6 35 10.2 50.3 -73.6 -2.898
13:52 1015 29.97 844 24.92 25.2 77.3 41 11.3 52.3 -73.7 -2.902
13:53 1015 29.97 844 24.92 24.1 75.3 42 10.7 51.2 -73.6 -2.898
13:54 1015 29.97 844 24.92 23.2 73.8 47 11.3 52.4 -73.5 -2.894
13:55 1015 29.97 844 24.92 22.8 73 47 11 51.8 -73.4 -2.89
13:56 1015 29.97 844 24.92 22.6 72.6 48 11.1 52 -73.3 -2.886
13:57 1015 29.97 844 24.92 22.4 72.2 48 11 51.8 -73.3 -2.886
13:58 1015 29.97 844 24.92 22.3 72.2 47 10.7 51.2 -73.3 -2.886
13:59 1015 29.97 844 24.92 22.4 72.3 43 9.5 49.1 -73.3 -2.886
14:00 1015 29.97 844 24.92 22.5 72.5 45 10 50 -73.4 -2.89
14:01 1015 29.97 844 24.92 22.4 72.3 43 9.5 49 -73.4 -2.89
14:02 1015 29.97 844 24.92 22 71.6 43 8.9 48.1 -73.4 -2.89
14:03 1015 29.97 844 24.92 21.8 71.2 46 9.9 49.8 -73.4 -2.89
14:04 1015 29.97 844 24.92 21.9 71.3 43 8.8 47.8 -73.5 -2.894
14:05 1015 29.97 844 24.92 21.9 71.4 42 8.7 47.7 -73.6 -2.898
14:06 1015 29.97 844 24.92 21.8 71.2 41 8 46.4 -73.7 -2.902
14:07 1015 29.97 844 24.92 21.6 70.9 44 8.9 48 -73.8 -2.906
14:08 1015 29.97 844 24.92 21.6 70.8 40 7.7 45.9 -73.9 -2.909
14:09 1015 29.97 844 24.92 21.7 71 42 8.3 46.9 -74 -2.913
14:10 1015 29.97 844 24.92 21.9 71.3 39 7.6 45.7 -74.1 -2.917
14:11 1015 29.97 844 24.92 21.9 71.4 41 8.1 46.6 -74.2 -2.921
14:12 1015 29.97 844 24.92 21.9 71.4 40 7.8 46.1 -74.4 -2.929
14:13 1015 29.97 844 24.92 21.8 71.2 39 7.4 45.4 -74.5 -2.933
14:14 1015 29.97 844 24.92 21.8 71.2 39 7.3 45.1 -74.6 -2.937
14:15 1015 29.97 845 24.95 21.9 71.4 40 8 46.3 -74.8 -2.945
14:16 1015 29.97 845 24.95 22.2 72 40 8.1 46.6 -74.9 -2.949
14:17 1015 29.97 844 24.92 22.5 72.6 36 6.9 44.4 -75.1 -2.957
14:18 1015 29.97 844 24.92 22.7 72.8 38 8 46.3 -75.2 -2.961
14:19 1015 29.97 844 24.92 22.9 73.3 40 8.9 48 -75.3 -2.965
14:20 1015 29.97 844 24.92 23.1 73.5 35 7 44.6 -75.4 -2.969
14:21 1015 29.97 844 24.92 23.1 73.5 40 9.1 48.3 -75.5 -2.972
14:22 1015 29.97 845 24.95 23.3 73.9 34 6.8 44.3 -75.6 -2.976
14:23 1015 29.97 845 24.95 23.2 73.8 36 7.3 45.2 -75.7 -2.98
14:24 1015 29.97 845 24.95 23.2 73.8 38 8.4 47.2 -75.8 -2.984
14:25 1015 29.97 845 24.95 23.2 73.7 39 8.5 47.4 -75.9 -2.988
14:26 1015 29.97 845 24.95 23 73.4 39 8.6 47.4 -76 -2.992
14:27 1015 29.97 845 24.95 22.8 73 41 8.9 48.1 -76 -2.992
14:28 1015 29.97 845 24.95 22.6 72.7 38 7.6 45.7 -76.1 -2.996
14:29 1015 29.97 845 24.95 22.3 72.1 39 7.9 46.3 -76.1 -2.996
14:30 1015 29.97 845 24.95 21.9 71.3 39 7.6 45.6 -76.2 -3
14:31 1016 30 845 24.95 21.5 70.7 44 8.9 48 -76.3 -3.004
14:32 1016 30 845 24.95 21.4 70.4 40 7.6 45.6 -76.3 -3.004
14:33 1015 29.97 845 24.95 21.4 70.5 41 7.8 46.1 -76.4 -3.008
14:34 1015 29.97 845 24.95 21.5 70.6 38 6.6 43.8 -76.4 -3.008
14:35 1016 30 845 24.95 21.4 70.6 40 7.3 45.1 -76.5 -3.012
14:36 1016 30 845 24.95 21.4 70.6 39 7.3 45.1 -76.6 -3.016
14:37 1016 30 845 24.95 21.4 70.4 38 6.5 43.7 -76.7 -3.02
14:38 1016 30 845 24.95 21.3 70.4 38 6.8 44.2 -76.8 -3.024
14:39 1016 30 845 24.95 21.4 70.5 37 6.4 43.5 -76.9 -3.028
14:40 1016 30 845 24.95 21.5 70.7 35 5.8 42.4 -76.9 -3.028
14:41 1016 30 845 24.95 21.6 70.8 35 5.8 42.4 -77 -3.031
14:42 1016 30 845 24.95 21.6 70.9 37 6.3 43.4 -77.1 -3.035
14:43 1016 30 845 24.95 21.7 71.1 36 6.1 42.9 -77.2 -3.039
14:44 1016 30 845 24.95 21.8 71.3 36 6.2 43.1 -77.3 -3.043
14:45 1016 30 845 24.95 21.8 71.2 38 7 44.6 -77.3 -3.043
14:46 1015 29.97 845 24.95 21.8 71.2 36 6.4 43.6 -77.4 -3.047
14:47 1015 29.97 845 24.95 21.8 71.3 41 8.1 46.5 -77.4 -3.047
14:48 1015 29.97 845 24.95 22.2 71.9 33 5.5 41.8 -77.5 -3.051
14:49 1015 29.97 845 24.95 22.3 72.1 36 6.6 43.8 -77.6 -3.055
14:50 1015 29.97 844 24.92 22.3 72.1 37 7.3 45.1 -77.6 -3.055
14:51 1015 29.97 844 24.92 22.2 72 36 6.7 44.1 -77.7 -3.059
14:52 1015 29.97 844 24.92 22.1 71.9 41 8.4 47.2 -77.7 -3.059
14:53 1015 29.97 844 24.92 22.1 71.7 41 8.3 47 -77.8 -3.063
14:54 1015 29.97 844 24.92 21.9 71.4 37 6.8 44.3 -77.8 -3.063
14:55 1015 29.97 845 24.95 21.8 71.3 33 4.9 40.9 -77.9 -3.067
14:56 1015 29.97 845 24.95 21.9 71.4 43 9 48.3 -77.9 -3.067
14:57 1015 29.97 845 24.95 22.2 72 34 6 42.8 -78 -3.071
14:58 1015 29.97 844 24.92 22.5 72.6 35 6.5 43.7 -78 -3.071
14:59 1015 29.97 844 24.92 22.7 72.9 35 6.8 44.2 -78 -3.071
15:00 1015 29.97 844 24.92 22.7 72.9 31 5.2 41.3 -78.1 -3.075
15:01 1015 29.97 845 24.95 22.8 73 33 5.9 42.6 -78.1 -3.075
15:02 1015 29.97 845 24.95 22.7 72.8 33 5.8 42.4 -78.2 -3.079
15:03 1015 29.97 845 24.95 22.6 72.7 37 7.4 45.3 -78.2 -3.079
15:04 1015 29.97 845 24.95 22.6 72.6 34 6 42.7 -78.2 -3.079
15:05 1015 29.97 845 24.95 22.5 72.6 33 5.7 42.3 -78.2 -3.079
15:06 1015 29.97 845 24.95 22.6 72.6 34 6.2 43.2 -78.3 -3.083
15:07 1015 29.97 845 24.95 22.9 73.1 32 5.5 41.8 -78.3 -3.083
15:08 1015 29.97 845 24.95 23 73.3 31 5.3 41.6 -78.4 -3.087
15:09 1016 30 845 24.95 22.8 73 34 6.2 43.2 -78.4 -3.087
15:10 1016 30 845 24.95 22.6 72.7 35 6.6 44 -78.5 -3.091
15:11 1016 30 845 24.95 22.4 72.4 35 6.4 43.6 -78.5 -3.091
15:12 1016 30 845 24.95 22.2 72 33 5.6 42 -78.5 -3.091
15:13 1016 30 845 24.95 22 71.6 32 4.6 40.3 -78.5 -3.091
15:14 1016 30 845 24.95 21.9 71.3 37 6.7 44 -78.6 -3.094
15:15 1016 30 845 24.95 21.7 71.1 34 5.3 41.5 -78.6 -3.094
15:16 1016 30 845 24.95 21.6 70.9 38 6.7 44.1 -78.6 -3.094
15:17 1016 30 845 24.95 21.6 70.9 33 4.8 40.7 -78.7 -3.098
15:18 1016 30 845 24.95 21.7 71.1 33 5 41 -78.7 -3.098
15:19 1016 30 845 24.95 21.8 71.2 35 5.8 42.5 -78.7 -3.098
15:20 1016 30 845 24.95 21.8 71.2 33 5 41 -78.7 -3.098
15:21 1016 30 845 24.95 21.7 71.1 34 5.6 42 -78.7 -3.098
15:22 1016 30 845 24.95 21.7 71 38 6.8 44.2 -78.7 -3.098
15:23 1016 30 845 24.95 21.6 70.9 38 6.9 44.4 -78.8 -3.102
15:24 1016 30 845 24.95 21.6 70.8 40 7.5 45.4 -78.8 -3.102
15:25 1016 30 845 24.95 21.5 70.6 41 7.8 46 -78.8 -3.102
15:26 1016 30 845 24.95 21.3 70.3 41 7.7 45.8 -78.9 -3.106
15:27 1016 30 845 24.95 21.2 70.1 41 7.6 45.7 -78.9 -3.106
15:28 1016 30 845 24.95 21.1 70 38 6.4 43.6 -78.9 -3.106
15:29 1016 30 846 24.98 21.1 69.9 37 5.8 42.5 -78.9 -3.106
15:30 1016 30 846 24.98 21.1 70.1 34 5 41 -79 -3.11
15:31 1016 30 846 24.98 21.3 70.3 34 5 41 -79 -3.11
15:32 1016 30 846 24.98 21.4 70.4 33 4.7 40.4 -79.1 -3.114
15:33 1016 30 846 24.98 21.4 70.5 35 5.4 41.8 -79.1 -3.114
15:34 1016 30 845 24.95 21.1 70.1 36 5.6 42.1 -79.2 -3.118
15:35 1016 30 845 24.95 20.8 69.5 36 5.4 41.8 -79.2 -3.118
15:36 1016 30 845 24.95 20.6 69.1 38 6.1 42.9 -79.3 -3.122
15:37 1016 30 845 24.95 20.6 69 39 6.1 43.1 -79.3 -3.122
15:38 1016 30 845 24.95 20.5 69 38 5.7 42.3 -79.3 -3.122
15:39 1016 30 845 24.95 20.5 68.9 37 5.6 42.1 -79.4 -3.126
15:40 1016 30 846 24.98 20.4 68.7 38 5.8 42.4 -79.4 -3.126
15:41 1016 30 845 24.95 20.3 68.5 38 5.5 41.9 -79.5 -3.13
15:42 1016 30 845 24.95 20.2 68.4 40 6.4 43.4 -79.5 -3.13
15:43 1016 30 845 24.95 20.1 68.2 42 6.8 44.3 -79.6 -3.134
15:44 1016 30 845 24.95 20.1 68.1 44 7.4 45.4 -79.6 -3.134
15:45 1016 30 845 24.95 20 68 38 5.3 41.6 -79.7 -3.138
15:46 1016 30 845 24.95 20 68 40 6.2 43.1 -79.7 -3.138
15:47 1016 30 845 24.95 20.1 68.1 35 4.2 39.5 -79.8 -3.142
15:48 1016 30 845 24.95 20.2 68.3 39 5.8 42.4 -79.9 -3.146
15:49 1016 30 845 24.95 20.2 68.3 38 5.4 41.8 -79.9 -3.146
15:50 1016 30 845 24.95 20.2 68.4 42 7.2 44.9 -80 -3.15
15:51 1016 30 845 24.95 20.2 68.4 40 6.4 43.4 -80 -3.15
15:52 1016 30 845 24.95 20.4 68.7 39 6.1 43 -80.1 -3.154
15:53 1016 30 845 24.95 20.6 69 38 5.9 42.7 -80.1 -3.154
15:54 1016 30 845 24.95 20.7 69.3 43 7.9 46.2 -80.1 -3.154
15:55 1016 30 845 24.95 20.9 69.7 39 6.5 43.7 -80.2 -3.157
15:56 1016 30 845 24.95 21.1 69.9 36 5.7 42.2 -80.2 -3.157
15:57 1016 30 845 24.95 21 69.8 37 5.8 42.4 -80.3 -3.161
15:58 1016 30 845 24.95 20.8 69.5 37 5.8 42.4 -80.3 -3.161
15:59 1016 30 845 24.95 20.7 69.3 39 6.5 43.7 -80.3 -3.161
16:00 1016 30 845 24.95 20.5 69 39 6.4 43.6 -80.4 -3.165
16:01 1016 30 845 24.95 20.4 68.8 44 8.1 46.5 -80.4 -3.165
16:02 1016 30 845 24.95 20.4 68.7 41 6.8 44.3 -80.4 -3.165
16:03 1016 30 845 24.95 20.3 68.5 41 6.9 44.5 -80.4 -3.165
16:04 1016 30 845 24.95 20.3 68.5 41 6.7 44.1 -80.4 -3.165
16:05 1016 30 845 24.95 20.3 68.5 41 6.8 44.3 -80.4 -3.165
16:06 1016 30 845 24.95 20.3 68.5 40 6.3 43.3 -80.4 -3.165
16:07 1016 30 845 24.95 20.4 68.6 40 6.5 43.8 -80.4 -3.165
16:08 1016 30 845 24.95 20.4 68.7 38 5.8 42.5 -80.5 -3.169
16:09 1016 30 845 24.95 20.4 68.7 40 6.4 43.5 -80.5 -3.169
16:10 1016 30 845 24.95 20.4 68.7 39 6 42.8 -80.5 -3.169
16:11 1016 30 845 24.95 20.3 68.6 40 6.5 43.7 -80.5 -3.169
16:12 1016 30 845 24.95 20.3 68.5 40 6.2 43.2 -80.5 -3.169
16:13 1016 30 845 24.95 20.3 68.5 39 6.1 43 -80.5 -3.169
16:14 1016 30 845 24.95 20.3 68.5 39 6 42.8 -80.6 -3.173
16:15 1016 30 845 24.95 20.3 68.5 42 7 44.6 -80.5 -3.169
16:16 1016 30 845 24.95 20.3 68.6 36 4.8 40.7 -80.6 -3.173
16:17 1016 30 845 24.95 20.4 68.7 37 5.4 41.8 -80.6 -3.173
16:18 1016 30 845 24.95 20.4 68.8 37 5.4 41.7 -80.7 -3.177
16:19 1016 30 845 24.95 20.4 68.8 39 6.1 42.9 -80.6 -3.173
16:20 1016 30 845 24.95 20.5 68.8 35 4.5 40 -80.6 -3.173
16:21 1016 30 845 24.95 20.5 68.8 38 5.7 42.2 -80.7 -3.177
16:22 1016 30 845 24.95 20.5 68.9 38 5.9 42.5 -80.7 -3.177
16:23 1016 30 845 24.95 20.5 68.9 35 4.6 40.3 -80.8 -3.181
16:24 1016 30 845 24.95 20.5 69 36 5.2 41.4 -80.8 -3.181
16:25 1016 30 845 24.95 20.6 69 38 5.8 42.4 -80.9 -3.185
16:26 1016 30 845 24.95 20.5 69 39 6.1 43 -80.9 -3.185
16:27 1016 30 845 24.95 20.5 68.8 37 5.6 42.1 -80.9 -3.185
16:28 1016 30 845 24.95 20.4 68.7 36 4.8 40.6 -81 -3.189
16:29 1016 30 846 24.98 20.3 68.6 38 5.6 42.2 -81.1 -3.193
16:30 1016 30 846 24.98 20.4 68.6 37 5.2 41.4 -81.2 -3.197
16:31 1016 30 846 24.98 20.3 68.6 38 5.6 42.1 -81.2 -3.197
16:32 1016 30 846 24.98 20.3 68.5 37 5.1 41.2 -81.2 -3.197
16:33 1017 30.03 846 24.98 20.2 68.3 36 4.9 40.8 -81.3 -3.201
16:34 1017 30.03 846 24.98 20.2 68.3 38 5.4 41.7 -81.4 -3.205
16:35 1017 30.03 846 24.98 20.2 68.3 36 4.7 40.4 -81.4 -3.205
16:36 1017 30.03 846 24.98 20.1 68.3 37 5 41 -81.5 -3.209
16:37 1017 30.03 846 24.98 20.1 68.2 38 5.7 42.3 -81.5 -3.209
16:38 1017 30.03 846 24.98 20.1 68.2 35 4.2 39.6 -81.5 -3.209
16:39 1017 30.03 846 24.98 20.1 68.2 40 6.3 43.3 -81.6 -3.213
16:40 1017 30.03 846 24.98 20.1 68.1 39 5.7 42.3 -81.6 -3.213
16:41 1017 30.03 847 25.01 19.9 67.9 39 5.6 42 -81.7 -3.217
16:42 1017 30.03 847 25.01 19.8 67.7 37 5 40.9 -81.7 -3.217
16:43 1017 30.03 847 25.01 19.7 67.5 39 5.6 42.1 -81.8 -3.22
16:44 1018 30.06 847 25.01 19.7 67.4 40 5.9 42.6 -81.8 -3.22
16:45 1018 30.06 847 25.01 19.4 66.9 41 5.9 42.7 -81.9 -3.224
16:46 1018 30.06 847 25.01 19.2 66.5 41 5.9 42.6 -81.9 -3.224
16:47 1018 30.06 847 25.01 19.1 66.4 42 6.2 43.1 -81.9 -3.224
16:48 1018 30.06 847 25.01 19 66.2 43 6.3 43.3 -81.9 -3.224
16:49 1018 30.06 847 25.01 18.8 65.8 43 6.2 43.1 -81.9 -3.224
16:50 1018 30.06 847 25.01 18.6 65.4 45 6.4 43.6 -81.9 -3.224
16:51 1018 30.06 847 25.01 18.4 65.2 45 6.4 43.5 -81.9 -3.224
16:52 1018 30.06 847 25.01 18.2 64.7 45 6.1 42.9 -82 -3.228
16:53 1018 30.06 847 25.01 18 64.4 45 6.1 42.9 -82.1 -3.232
16:54 1018 30.06 847 25.01 17.9 64.2 46 6.1 43 -82.1 -3.232
16:55 1018 30.06 847 25.01 17.8 64 49 7 44.7 -82.1 -3.232
16:56 1018 30.06 847 25.01 17.6 63.7 48 6.7 44 -82.2 -3.236
16:57 1018 30.06 847 25.01 17.5 63.5 47 6.3 43.4 -82.2 -3.236
16:58 1017 30.03 847 25.01 17.5 63.4 48 6.4 43.5 -82.3 -3.24
16:59 1017 30.03 847 25.01 17.5 63.4 46 5.7 42.3 -82.3 -3.24
17:00 1017 30.03 847 25.01 17.4 63.3 48 6.5 43.6 -82.3 -3.24
17:01 1017 30.03 847 25.01 17.4 63.4 48 6.3 43.4 -82.4 -3.244
17:02 1017 30.03 847 25.01 17.4 63.3 47 6 42.8 -82.5 -3.248
17:03 1017 30.03 847 25.01 17.4 63.3 50 7 44.6 -82.5 -3.248
17:04 1017 30.03 847 25.01 17.4 63.3 48 6.4 43.5 -82.6 -3.252
17:05 1017 30.03 847 25.01 17.4 63.2 46 5.7 42.3 -82.7 -3.256
17:06 1018 30.06 847 25.01 17.4 63.3 49 6.7 44 -82.8 -3.26
17:07 1018 30.06 847 25.01 17.4 63.3 47 6.2 43.2 -82.8 -3.26
17:08 1018 30.06 847 25.01 17.4 63.3 48 6.5 43.7 -82.8 -3.26
17:09 1018 30.06 847 25.01 17.4 63.2 48 6.4 43.5 -82.9 -3.264
17:10 1018 30.06 847 25.01 17.4 63.2 48 6.4 43.6 -82.8 -3.26
17:11 1018 30.06 847 25.01 17.4 63.3 45 5.6 42.1 -82.8 -3.26
17:12 1018 30.06 847 25.01 17.5 63.5 45 5.5 41.8 -82.6 -3.252
17:13 1018 30.06 847 25.01 17.6 63.6 45 5.8 42.4 -82.4 -3.244
17:14 1018 30.06 847 25.01 17.6 63.6 44 5.3 41.5 -82.2 -3.236
17:15 1018 30.06 847 25.01 17.6 63.7 43 5.1 41.2 -81.2 -3.197
17:16 1018 30.06 847 25.01 17.6 63.8 43 5.2 41.3 -79.8 -3.142
17:17 1018 30.06 847 25.01 17.6 63.7 43 5 41 -78.8 -3.102
17:18 1018 30.06 847 25.01 17.6 63.8 43 5.2 41.3 -78.6 -3.094
17:19 1018 30.06 847 25.01 17.7 63.8 43 5.2 41.3 -79.8 -3.142
17:20 1018 30.06 847 25.01 17.7 63.8 42 4.6 40.3 -81.2 -3.197
17:21 1018 30.06 847 25.01 17.9 64.2 43 5.1 41.2 -82.8 -3.26
17:22 1018 30.06 847 25.01 17.9 64.2 41 4.6 40.2 -84.2 -3.315
17:23 1018 30.06 847 25.01 18 64.3 42 4.9 40.9 -86 -3.386
17:24 1018 30.06 847 25.01 18 64.4 41 4.7 40.4 -87.7 -3.453
17:25 1018 30.06 847 25.01 18 64.5 43 5.3 41.6 -88.1 -3.469
17:26 1017 30.03 847 25.01 17.9 64.2 45 5.8 42.4 -89.5 -3.524
17:27 1017 30.03 847 25.01 17.7 63.9 45 5.6 42.1 -89.8 -3.535
17:28 1017 30.03 847 25.01 17.7 63.8 37 2.9 37.3 -87.9 -3.461
17:29 1017 30.03 846 24.98 18 64.5 38 3.7 38.6 -86 -3.386
17:30 1017 30.03 846 24.98 18.3 64.9 39 4.1 39.4 -83.9 -3.303
17:31 1017 30.03 846 24.98 18.4 65 40 4.7 40.5 -81.5 -3.209
17:32 1017 30.03 846 24.98 18.3 64.9 38 3.8 38.9 -80.9 -3.185
17:33 1017 30.03 846 24.98 18.3 64.9 38 4 39.2 -81.3 -3.201
17:34 1017 30.03 846 24.98 18.3 65 39 4.3 39.8 -82 -3.228
17:35 1017 30.03 846 24.98 18.4 65 40 4.6 40.2 -82.6 -3.252
17:36 1017 30.03 846 24.98 18.4 65 39 4.2 39.6 -83.1 -3.272
17:37 1017 30.03 846 24.98 18.4 65.2 39 4.4 39.8 -83.5 -3.287
17:38 1017 30.03 846 24.98 18.5 65.2 40 4.7 40.4 -83.7 -3.295
17:39 1017 30.03 846 24.98 18.4 65.2 42 5.3 41.6 -83.9 -3.303
17:40 1017 30.03 846 24.98 18.4 65.2 41 5.1 41.1 -84 -3.307
17:41 1017 30.03 846 24.98 18.4 65.2 43 5.6 42.2 -84 -3.307
17:42 1017 30.03 846 24.98 18.4 65.2 43 5.7 42.2 -84 -3.307
17:43 1017 30.03 846 24.98 18.4 65.2 43 5.7 42.3 -84.1 -3.311
17:44 1017 30.03 846 24.98 18.4 65.1 43 5.7 42.3 -84.1 -3.311
17:45 1017 30.03 847 25.01 18.4 65.1 49 7.5 45.5 -84.1 -3.311
17:46 1017 30.03 847 25.01 18.3 64.9 51 8.2 46.7 -84.1 -3.311
17:47 1017 30.03 847 25.01 18.1 64.7 48 7.2 44.9 -84.1 -3.311
17:48 1017 30.03 847 25.01 18 64.3 48 6.9 44.5 -84.1 -3.311
17:49 1017 30.03 847 25.01 17.8 64.1 45 6 42.7 -84.1 -3.311
17:50 1017 30.03 847 25.01 17.8 64.1 49 7 44.5 -84.1 -3.311
17:51 1017 30.03 847 25.01 17.7 63.9 46 6.2 43.1 -84.1 -3.311
17:52 1018 30.06 847 25.01 17.6 63.8 50 7.1 44.7 -84.1 -3.311
17:53 1018 30.06 847 25.01 17.6 63.6 48 6.6 43.9 -84.2 -3.315
17:54 1018 30.06 847 25.01 17.5 63.4 49 6.8 44.3 -84.3 -3.319
17:55 1018 30.06 847 25.01 17.4 63.2 51 7.1 44.8 -84.4 -3.323
17:56 1018 30.06 847 25.01 17.3 63.1 51 7.1 44.9 -84.5 -3.327
17:57 1018 30.06 847 25.01 17.2 62.9 50 6.6 44 -84.9 -3.343
17:58 1018 30.06 847 25.01 17.1 62.8 51 7.1 44.7 -85.2 -3.354
17:59 1018 30.06 847 25.01 17.1 62.8 51 6.9 44.4 -85.7 -3.374
18:00 1018 30.06 847 25.01 17 62.7 50 6.7 44 -86.2 -3.394
18:01 1018 30.06 847 25.01 17 62.7 51 6.8 44.3 -87 -3.425
18:02 1018 30.06 847 25.01 17.1 62.7 49 6.5 43.7 -88.4 -3.48
18:03 1018 30.06 847 25.01 17 62.7 52 7.3 45.2 -90 -3.543
18:04 1018 30.06 847 25.01 17 62.6 53 7.3 45.2 -91.2 -3.591
18:05 1018 30.06 847 25.01 17 62.5 51 6.7 44.1 -91.6 -3.606
18:06 1018 30.06 847 25.01 16.9 62.5 50 6.4 43.6 -90.9 -3.579
18:07 1018 30.06 847 25.01 17 62.5 50 6.6 43.8 -89.4 -3.52
18:08 1018 30.06 847 25.01 17 62.7 50 6.5 43.8 -86.4 -3.402
18:09 1018 30.06 847 25.01 17.1 62.8 49 6.5 43.7 -82.2 -3.236
18:10 1018 30.06 847 25.01 17.1 62.8 47 5.9 42.6 -79.7 -3.138
18:11 1018 30.06 847 25.01 17.2 62.9 52 7.4 45.4 -78.7 -3.098
18:12 1018 30.06 847 25.01 17.2 63 55 8.3 46.9 -78.4 -3.087
18:13 1018 30.06 847 25.01 17.1 62.8 55 8.2 46.8 -78.7 -3.098
18:14 1018 30.06 847 25.01 16.9 62.5 57 8.5 47.4 -79.6 -3.134
18:15 1018 30.06 847 25.01 16.8 62.2 56 8 46.3 -81.6 -3.213
18:16 1018 30.06 847 25.01 16.7 62.1 58 8.5 47.2 -84.2 -3.315
18:17 1018 30.06 847 25.01 16.7 62 58 8.5 47.3 -85.9 -3.382
18:18 1018 30.06 847 25.01 16.6 61.9 58 8.4 47.1 -86.5 -3.406
18:19 1018 30.06 847 25.01 16.5 61.7 59 8.4 47.2 -86.2 -3.394
18:20 1018 30.06 847 25.01 16.5 61.6 60 8.8 47.8 -85.8 -3.378
18:21 1018 30.06 847 25.01 16.4 61.6 57 7.9 46.2 -85.3 -3.358
18:22 1018 30.06 847 25.01 16.5 61.6 56 7.8 46 -84.9 -3.343
18:23 1018 30.06 847 25.01 16.6 61.8 55 7.6 45.7 -84.6 -3.331
18:24 1018 30.06 847 25.01 16.7 62 53 7.1 44.8 -84.5 -3.327
18:25 1018 30.06 847 25.01 16.8 62.3 51 6.8 44.3 -84.5 -3.327
18:26 1018 30.06 847 25.01 17 62.5 52 7.1 44.8 -84.5 -3.327
18:27 1018 30.06 847 25.01 17.1 62.7 50 6.7 44 -84.5 -3.327
18:28 1018 30.06 847 25.01 17.2 62.9 53 7.5 45.5 -84.6 -3.331
18:29 1018 30.06 847 25.01 17.3 63.1 51 7.2 45 -84.7 -3.335
18:30 1017 30.03 847 25.01 17.3 63.2 48 6.4 43.6 -84.7 -3.335
18:31 1017 30.03 847 25.01 17.4 63.4 47 6 42.9 -84.8 -3.339
18:32 1017 30.03 847 25.01 17.5 63.5 47 6.2 43.1 -84.8 -3.339
18:33 1017 30.03 847 25.01 17.6 63.6 50 7.1 44.8 -84.9 -3.343
18:34 1017 30.03 847 25.01 17.6 63.6 49 6.9 44.3 -84.9 -3.343
18:35 1017 30.03 847 25.01 17.6 63.6 50 7.2 44.9 -84.9 -3.343
18:36 1017 30.03 846 24.98 17.6 63.7 46 6 42.8 -84.9 -3.343
18:37 1017 30.03 846 24.98 17.7 63.8 48 6.7 44.1 -85 -3.346
18:38 1017 30.03 846 24.98 17.7 63.9 47 6.3 43.4 -85 -3.346
18:39 1017 30.03 846 24.98 17.7 63.9 45 5.8 42.5 -85 -3.346
18:40 1017 30.03 846 24.98 17.8 64 45 5.9 42.6 -85 -3.346
18:41 1017 30.03 846 24.98 17.8 64 47 6.3 43.3 -85 -3.346
18:42 1017 30.03 846 24.98 17.8 64.1 45 5.9 42.7 -85.1 -3.35
18:43 1017 30.03 846 24.98 17.9 64.1 46 6.3 43.4 -85.1 -3.35
18:44 1017 30.03 847 25.01 17.9 64.3 47 6.4 43.6 -85.1 -3.35
18:45 1017 30.03 847 25.01 18 64.5 47 6.5 43.8 -85.1 -3.35
18:46 1017 30.03 847 25.01 18.1 64.6 47 6.8 44.3 -85.1 -3.35
18:47 1017 30.03 847 25.01 18.1 64.6 47 6.9 44.4 -85.1 -3.35
18:48 1017 30.03 847 25.01 18.1 64.7 50 7.7 45.9 -85.1 -3.35
18:49 1017 30.03 847 25.01 18.1 64.5 49 7.3 45.2 -85.2 -3.354
18:50 1017 30.03 847 25.01 18 64.3 51 7.8 46.1 -85.2 -3.354
18:51 1017 30.03 847 25.01 17.9 64.2 50 7.4 45.3 -85.2 -3.354
18:52 1017 30.03 847 25.01 17.9 64.2 49 7.1 44.7 -85.2 -3.354
18:53 1017 30.03 847 25.01 17.9 64.2 48 7 44.5 -85.2 -3.354
18:54 1017 30.03 847 25.01 17.9 64.1 49 7 44.7 -85.2 -3.354
18:55 1017 30.03 847 25.01 17.9 64.1 48 6.7 44.1 -85.2 -3.354
18:56 1017 30.03 847 25.01 17.9 64.2 46 6.1 43 -85.2 -3.354
18:57 1017 30.03 847 25.01 17.9 64.3 46 6.3 43.3 -85.2 -3.354
18:58 1017 30.03 847 25.01 18 64.3 47 6.6 43.8 -85.3 -3.358
18:59 1017 30.03 847 25.01 17.9 64.2 46 6.2 43.2 -85.3 -3.358
19:00 1017 30.03 847 25.01 17.8 64.1 46 6.3 43.3 -85.3 -3.358
19:01 1017 30.03 847 25.01 17.8 64.1 47 6.4 43.5 -85.3 -3.358
19:02 1017 30.03 847 25.01 17.9 64.2 47 6.5 43.7 -85.3 -3.358
19:03 1017 30.03 847 25.01 18 64.5 47 6.6 43.9 -85.3 -3.358
19:04 1017 30.03 847 25.01 18.2 64.8 46 6.4 43.5 -85.3 -3.358
19:05 1017 30.03 847 25.01 18.3 65 45 6.2 43.2 -85.3 -3.358
19:06 1017 30.03 847 25.01 18.4 65.2 42 5.5 42 -85.4 -3.362
19:07 1017 30.03 847 25.01 18.5 65.3 43 5.7 42.3 -85.4 -3.362
19:08 1017 30.03 847 25.01 18.6 65.5 41 5.3 41.6 -85.4 -3.362
19:09 1017 30.03 847 25.01 18.7 65.6 44 6.4 43.5 -85.5 -3.366
19:10 1017 30.03 847 25.01 18.7 65.6 42 5.7 42.3 -85.5 -3.366
19:11 1017 30.03 847 25.01 18.6 65.5 47 7.2 44.9 -85.6 -3.37
19:12 1017 30.03 847 25.01 18.4 65.1 47 7 44.6 -85.7 -3.374
19:13 1017 30.03 847 25.01 18.2 64.8 51 7.9 46.2 -85.8 -3.378
19:14 1017 30.03 847 25.01 17.9 64.2 52 8 46.4 -85.8 -3.378
19:15 1017 30.03 846 24.98 17.6 63.8 54 8.2 46.8 -85.7 -3.374
19:16 1017 30.03 847 25.01 17.4 63.3 55 8.3 46.9 -85.7 -3.374
19:17 1017 30.03 846 24.98 17.2 62.9 56 8.5 47.3 -85.6 -3.37
19:18 1017 30.03 846 24.98 17 62.6 57 8.5 47.3 -85.5 -3.366
19:19 1017 30.03 846 24.98 16.8 62.3 57 8.3 46.9 -85.5 -3.366
19:20 1017 30.03 846 24.98 16.7 62.1 55 7.8 46.1 -85.5 -3.366
19:21 1017 30.03 846 24.98 16.7 62 57 8.2 46.7 -85.5 -3.366
19:22 1017 30.03 846 24.98 16.6 61.9 57 8.1 46.6 -85.5 -3.366
19:23 1017 30.03 846 24.98 16.6 61.8 58 8.3 46.9 -85.4 -3.362
19:24 1017 30.03 846 24.98 16.5 61.6 57 8 46.5 -85.5 -3.366
19:25 1017 30.03 846 24.98 16.4 61.5 58 8.2 46.7 -85.5 -3.366
19:26 1017 30.03 846 24.98 16.3 61.4 58 8.2 46.8 -85.5 -3.366
19:27 1017 30.03 846 24.98 16.2 61.2 59 8.3 46.9 -85.5 -3.366
19:28 1017 30.03 846 24.98 16.2 61.2 57 7.9 46.2 -85.5 -3.366
19:29 1017 30.03 846 24.98 16.2 61.1 56 7.5 45.5 -85.5 -3.366
19:30 1017 30.03 846 24.98 16.2 61.1 54 7 44.7 -85.5 -3.366
19:31 1017 30.03 846 24.98 16.3 61.3 55 7.3 45.2 -85.5 -3.366
19:32 1017 30.03 846 24.98 16.3 61.3 55 7.4 45.3 -85.5 -3.366
19:33 1017 30.03 846 24.98 16.1 61.1 55 7.3 45.2 -85.5 -3.366
19:34 1017 30.03 846 24.98 16 60.8 56 7.3 45.1 -85.5 -3.366
19:35 1017 30.03 846 24.98 15.9 60.6 56 7.2 44.9 -85.6 -3.37
19:36 1017 30.03 846 24.98 15.8 60.4 56 7 44.6 -85.6 -3.37
19:37 1017 30.03 846 24.98 15.8 60.4 55 6.9 44.3 -85.6 -3.37
19:38 1017 30.03 846 24.98 15.7 60.2 55 6.7 44.1 -85.6 -3.37
19:39 1017 30.03 846 24.98 15.6 60.1 56 7 44.6 -85.7 -3.374
19:40 1017 30.03 846 24.98 15.6 60 56 6.9 44.5 -85.7 -3.374
19:41 1017 30.03 846 24.98 15.4 59.7 57 6.9 44.5 -85.7 -3.374
19:42 1017 30.03 846 24.98 15.4 59.6 58 7.2 45 -85.7 -3.374
19:43 1017 30.03 846 24.98 15.2 59.4 58 7.2 44.9 -85.7 -3.374
19:44 1017 30.03 847 25.01 15.1 59.2 59 7.1 44.8 -85.8 -3.378
19:45 1017 30.03 846 24.98 15.1 59.1 59 7.2 44.9 -85.8 -3.378
19:46 1017 30.03 846 24.98 15 59 59 7.1 44.7 -85.8 -3.378
19:47 1017 30.03 847 25.01 15 59 59 7 44.7 -85.9 -3.382
19:48 1017 30.03 847 25.01 15 59 58 6.9 44.5 -85.9 -3.382
19:49 1017 30.03 847 25.01 15 59 58 7 44.6 -85.9 -3.382
19:50 1017 30.03 847 25.01 14.9 58.9 60 7.2 45 -85.9 -3.382
19:51 1017 30.03 847 25.01 14.8 58.6 62 7.7 45.8 -86 -3.386
19:52 1017 30.03 847 25.01 14.4 57.9 63 7.5 45.4 -86 -3.386
19:53 1018 30.06 847 25.01 14.2 57.6 64 7.6 45.7 -86 -3.386
19:54 1018 30.06 847 25.01 14.2 57.5 63 7.3 45.2 -86.1 -3.39
19:55 1018 30.06 847 25.01 14.3 57.7 62 7.2 45 -86.1 -3.39
19:56 1017 30.03 847 25.01 14.4 57.9 61 7.1 44.7 -86.1 -3.39
19:57 1017 30.03 847 25.01 14.5 58.1 61 7.1 44.8 -86.1 -3.39
19:58 1017 30.03 847 25.01 14.6 58.2 60 6.9 44.4 -86.1 -3.39
19:59 1017 30.03 847 25.01 14.7 58.5 57 6.3 43.4 -86.2 -3.394
20:00 1018 30.06 847 25.01 15 59 57 6.5 43.8 -86.2 -3.394
20:01 1018 30.06 847 25.01 15.2 59.3 55 6.2 43.2 -86.2 -3.394
20:02 1018 30.06 847 25.01 15.3 59.6 54 6.3 43.3 -86.2 -3.394
20:03 1018 30.06 847 25.01 15.4 59.8 53 6.1 43 -86.3 -3.398
20:04 1018 30.06 847 25.01 15.5 60 53 6 42.7 -86.3 -3.398
20:05 1018 30.06 847 25.01 15.7 60.2 52 6 42.9 -86.3 -3.398
20:06 1018 30.06 847 25.01 15.8 60.4 57 7.4 45.2 -86.3 -3.398
20:07 1018 30.06 847 25.01 15.6 60 57 7.3 45.1 -86.4 -3.402
20:08 1018 30.06 847 25.01 15.3 59.5 57 6.9 44.4 -86.4 -3.402
20:09 1018 30.06 847 25.01 15.1 59.2 58 7 44.6 -86.4 -3.402
20:10 1018 30.06 847 25.01 15.1 59.1 59 7.3 45.1 -86.4 -3.402
20:11 1018 30.06 847 25.01 15 59 60 7.5 45.4 -86.4 -3.402
20:12 1018 30.06 847 25.01 14.9 58.8 61 7.5 45.4 -86.5 -3.406
20:13 1018 30.06 847 25.01 14.8 58.6 63 7.8 46 -86.5 -3.406
20:14 1018 30.06 847 25.01 14.5 58 64 7.9 46.1 -86.5 -3.406
20:15 1018 30.06 847 25.01 14.2 57.6 64 7.5 45.6 -86.5 -3.406
20:16 1018 30.06 847 25.01 14.1 57.4 65 7.8 46 -86.5 -3.406
20:17 1018 30.06 847 25.01 14 57.2 66 7.8 46.1 -86.5 -3.406
20:18 1018 30.06 847 25.01 14 57.1 66 7.7 45.9 -86.5 -3.406
20:19 1018 30.06 847 25.01 14 57.1 66 7.7 45.9 -86.5 -3.406
20:20 1018 30.06 847 25.01 13.9 57 66 7.7 45.9 -86.5 -3.406
20:21 1018 30.06 847 25.01 13.9 57 67 7.9 46.2 -86.5 -3.406
20:22 1018 30.06 847 25.01 13.9 57 66 7.7 45.8 -86.6 -3.409
20:23 1018 30.06 847 25.01 13.9 57 67 7.9 46.3 -86.6 -3.409
20:24 1018 30.06 847 25.01 13.9 57.1 67 8 46.4 -86.6 -3.409
20:25 1018 30.06 847 25.01 13.9 57 69 8.4 47.2 -86.6 -3.409
20:26 1018 30.06 847 25.01 13.8 56.8 72 8.8 47.8 -86.5 -3.406
20:27 1018 30.06 847 25.01 13.5 56.4 73 8.8 47.8 -86.5 -3.406
20:28 1018 30.06 847 25.01 13.3 56 74 8.7 47.7 -86.5 -3.406
20:29 1018 30.06 847 25.01 13.2 55.7 74 8.6 47.5 -86.5 -3.406
20:30 1018 30.06 848 25.04 13.1 55.6 74 8.5 47.4 -86.5 -3.406
20:31 1018 30.06 848 25.04 13.1 55.5 73 8.4 47.2 -86.5 -3.406
20:32 1018 30.06 848 25.04 13.1 55.6 74 8.5 47.4 -86.5 -3.406
20:33 1019 30.09 848 25.04 13.1 55.6 74 8.7 47.6 -86.5 -3.406
20:34 1019 30.09 848 25.04 13.1 55.5 75 8.8 47.9 -86.5 -3.406
20:35 1019 30.09 848 25.04 13 55.4 75 8.8 47.8 -86.4 -3.402
20:36 1019 30.09 848 25.04 13 55.4 74 8.5 47.3 -86.4 -3.402
20:37 1019 30.09 848 25.04 13 55.5 73 8.4 47.2 -86.4 -3.402
20:38 1019 30.09 848 25.04 13.1 55.5 73 8.4 47.2 -86.4 -3.402
20:39 1019 30.09 848 25.04 13.2 55.7 72 8.3 46.9 -86.4 -3.402
20:40 1019 30.09 848 25.04 13.2 55.8 72 8.4 47.1 -86.5 -3.406
20:41 1019 30.09 848 25.04 13.3 56 72 8.5 47.2 -86.5 -3.406
20:42 1019 30.09 848 25.04 13.4 56 72 8.4 47 -86.5 -3.406
20:43 1019 30.09 848 25.04 13.4 56.2 71 8.4 47 -86.6 -3.409
20:44 1019 30.09 848 25.04 13.5 56.4 72 8.5 47.4 -86.6 -3.409
20:45 1019 30.09 848 25.04 13.6 56.4 72 8.7 47.6 -86.7 -3.413
20:46 1019 30.09 848 25.04 13.6 56.5 72 8.6 47.5 -86.7 -3.413
20:47 1019 30.09 848 25.04 13.6 56.5 71 8.5 47.3 -86.8 -3.417
20:48 1019 30.09 848 25.04 13.7 56.7 70 8.5 47.2 -86.8 -3.417
20:49 1019 30.09 848 25.04 13.8 56.9 70 8.5 47.4 -86.8 -3.417
20:50 1019 30.09 848 25.04 13.9 57.1 70 8.6 47.5 -86.8 -3.417
20:51 1019 30.09 848 25.04 14 57.2 71 8.8 47.9 -86.8 -3.417
20:52 1019 30.09 848 25.04 14 57.1 71 8.9 48 -86.8 -3.417
20:53 1019 30.09 848 25.04 14 57.1 72 9.1 48.3 -86.8 -3.417
20:54 1019 30.09 849 25.07 13.9 57 73 9.2 48.5 -86.8 -3.417
20:55 1019 30.09 849 25.07 13.8 56.9 74 9.3 48.7 -86.7 -3.413
20:56 1020 30.12 849 25.07 13.9 57 73 9.2 48.5 -86.7 -3.413
20:57 1020 30.12 849 25.07 14 57.2 73 9.3 48.7 -86.7 -3.413
20:58 1020 30.12 849 25.07 14.1 57.4 72 9.2 48.6 -86.7 -3.413
20:59 1020 30.12 849 25.07 14.3 57.7 72 9.3 48.7 -86.7 -3.413
21:00 1020 30.12 849 25.07 14.4 57.9 72 9.4 48.9 -86.8 -3.417
21:01 1020 30.12 849 25.07 14.4 57.9 72 9.4 48.9 -86.8 -3.417
21:02 1020 30.12 849 25.07 14.5 58 71 9.3 48.7 -86.9 -3.421
21:03 1020 30.12 849 25.07 14.5 58.1 71 9.4 49 -86.9 -3.421
21:04 1020 30.12 849 25.07 14.5 58 71 9.4 48.8 -86.8 -3.417
21:05 1020 30.12 849 25.07 14.5 58.1 72 9.5 49.1 -86.7 -3.413
21:06 1020 30.12 849 25.07 14.4 58 73 9.7 49.4 -86.7 -3.413
21:07 1020 30.12 849 25.07 14.4 57.9 72 9.4 48.9 -86.7 -3.413
21:08 1020 30.12 849 25.07 14.4 57.9 72 9.4 48.9 -86.7 -3.413
21:09 1020 30.12 849 25.07 14.4 57.9 72 9.4 48.9 -86.7 -3.413
21:10 1020 30.12 849 25.07 14.5 58 71 9.3 48.8 -86.7 -3.413
21:11 1020 30.12 849 25.07 14.5 58 72 9.6 49.2 -86.7 -3.413
21:12 1020 30.12 849 25.07 14.4 57.9 73 9.6 49.3 -86.6 -3.409
21:13 1020 30.12 849 25.07 14.4 57.8 73 9.7 49.4 -86.6 -3.409
21:14 1020 30.12 849 25.07 14.3 57.7 74 9.8 49.6 -86.6 -3.409
21:15 1020 30.12 849 25.07 14.2 57.6 74 9.7 49.5 -86.8 -3.417
21:16 1020 30.12 849 25.07 14.2 57.5 75 9.8 49.7 -86.9 -3.421
21:17 1020 30.12 849 25.07 14.1 57.4 76 10 49.9 -86.9 -3.421
21:18 1020 30.12 849 25.07 14.1 57.3 76 9.9 49.9 -86.9 -3.421
21:19 1020 30.12 849 25.07 14.1 57.3 75 9.7 49.4 -86.8 -3.417
21:20 1020 30.12 849 25.07 14.1 57.4 75 9.9 49.7 -86.8 -3.417
21:21 1020 30.12 849 25.07 14.1 57.5 76 10 49.9 -86.7 -3.413
21:22 1020 30.12 849 25.07 14.1 57.4 76 10 50 -86.7 -3.413
21:23 1020 30.12 849 25.07 14.1 57.4 76 10 49.9 -86.6 -3.409
21:24 1020 30.12 849 25.07 14.1 57.4 75 9.8 49.7 -86.5 -3.406
21:25 1020 30.12 849 25.07 14.1 57.4 76 10 50 -86.4 -3.402
21:26 1020 30.12 849 25.07 14.1 57.4 76 9.9 49.9 -86.4 -3.402
21:27 1020 30.12 849 25.07 14.1 57.4 76 9.9 49.9 -86.4 -3.402
21:28 1020 30.12 849 25.07 14.2 57.5 75 9.9 49.8 -86.4 -3.402
21:29 1020 30.12 849 25.07 14.2 57.5 77 10.2 50.3 -86.4 -3.402
21:30 1020 30.12 849 25.07 14.2 57.5 77 10.1 50.2 -86.4 -3.402
21:31 1020 30.12 850 25.1 14.1 57.3 76 10 49.9 -86.3 -3.398
21:32 1020 30.12 850 25.1 14 57.3 76 9.9 49.8 -86.3 -3.398
21:33 1020 30.12 850 25.1 14.1 57.3 75 9.7 49.5 -86.3 -3.398
21:34 1021 30.15 850 25.1 14.1 57.3 75 9.8 49.6 -86.3 -3.398
21:35 1021 30.15 850 25.1 14.1 57.4 75 9.8 49.6 -86.3 -3.398
21:36 1021 30.15 850 25.1 14.1 57.5 76 10 50 -86.3 -3.398
21:37 1021 30.15 850 25.1 14.1 57.4 75 9.9 49.8 -86.3 -3.398
21:38 1021 30.15 850 25.1 14 57.3 75 9.8 49.6 -86.3 -3.398
21:39 1021 30.15 850 25.1 14 57.2 76 9.9 49.8 -86.4 -3.402
21:40 1021 30.15 850 25.1 14 57.2 76 9.9 49.7 -86.4 -3.402
21:41 1021 30.15 850 25.1 14 57.2 76 9.9 49.9 -86.4 -3.402
21:42 1021 30.15 850 25.1 14 57.1 75 9.7 49.4 -86.4 -3.402
21:43 1021 30.15 850 25.1 13.9 57 75 9.6 49.3 -86.4 -3.402
21:44 1021 30.15 850 25.1 13.9 57.1 75 9.6 49.3 -86.4 -3.402
21:45 1021 30.15 850 25.1 14 57.1 75 9.7 49.5 -86.4 -3.402
21:46 1021 30.15 850 25.1 14 57.2 76 9.8 49.6 -86.4 -3.402
21:47 1021 30.15 850 25.1 13.9 57.1 75 9.6 49.3 -86.4 -3.402
21:48 1021 30.15 850 25.1 13.9 57.1 75 9.6 49.3 -86.4 -3.402
21:49 1021 30.15 850 25.1 14 57.1 75 9.7 49.4 -86.4 -3.402
21:50 1021 30.15 850 25.1 13.9 57.1 74 9.4 48.9 -86.4 -3.402
21:51 1021 30.15 850 25.1 14 57.1 73 9.3 48.8 -86.4 -3.402
21:52 1021 30.15 850 25.1 14 57.2 73 9.3 48.8 -86.4 -3.402
21:53 1021 30.15 850 25.1 14.1 57.3 73 9.3 48.8 -86.4 -3.402
21:54 1021 30.15 850 25.1 14.1 57.4 74 9.5 49.1 -86.4 -3.402
21:55 1021 30.15 850 25.1 14.1 57.4 74 9.5 49.1 -86.4 -3.402
21:56 1021 30.15 850 25.1 14 57.3 74 9.5 49.1 -86.4 -3.402
21:57 1021 30.15 850 25.1 14 57.2 74 9.5 49.1 -86.5 -3.406
21:58 1021 30.15 850 25.1 14 57.3 74 9.6 49.3 -86.5 -3.406
21:59 1021 30.15 850 25.1 14 57.3 75 9.6 49.3 -86.5 -3.406
22:00 1021 30.15 850 25.1 14 57.2 75 9.6 49.3 -86.5 -3.406
22:01 1021 30.15 850 25.1 14 57.2 75 9.6 49.3 -86.5 -3.406
22:02 1021 30.15 850 25.1 13.9 57.1 75 9.6 49.2 -86.5 -3.406
22:03 1021 30.15 850 25.1 14 57.1 75 9.6 49.2 -86.5 -3.406
22:04 1021 30.15 850 25.1 13.9 57.1 74 9.5 49.1 -86.5 -3.406
22:05 1021 30.15 850 25.1 13.9 57.1 74 9.5 49.1 -86.5 -3.406
22:06 1021 30.15 850 25.1 13.9 57 75 9.5 49.1 -86.5 -3.406
22:07 1021 30.15 850 25.1 13.9 57 75 9.5 49 -86.6 -3.409
22:08 1021 30.15 850 25.1 13.8 56.9 75 9.4 49 -86.6 -3.409
22:09 1021 30.15 850 25.1 13.8 56.8 75 9.4 48.9 -86.6 -3.409
22:10 1021 30.15 850 25.1 13.7 56.7 75 9.4 49 -86.6 -3.409
22:11 1021 30.15 850 25.1 13.7 56.7 75 9.4 48.9 -86.6 -3.409
22:12 1021 30.15 850 25.1 13.6 56.5 75 9.4 48.9 -86.6 -3.409
22:13 1021 30.15 850 25.1 13.4 56.2 77 9.4 49 -86.6 -3.409
22:14 1021 30.15 850 25.1 13.3 55.9 77 9.4 48.9 -86.6 -3.409
22:15 1021 30.15 850 25.1 13 55.5 78 9.4 48.9 -86.6 -3.409
22:16 1021 30.15 850 25.1 12.9 55.2 78 9.3 48.7 -86.6 -3.409
22:17 1021 30.15 850 25.1 12.9 55.2 79 9.3 48.7 -86.5 -3.406
22:18 1021 30.15 850 25.1 12.8 55.1 79 9.2 48.6 -86.5 -3.406
22:19 1021 30.15 851 25.13 12.7 54.9 79 9.2 48.6 -86.5 -3.406
22:20 1021 30.15 851 25.13 12.6 54.7 80 9.3 48.7 -86.5 -3.406
22:21 1021 30.15 851 25.13 12.5 54.4 80 9.2 48.6 -86.4 -3.402
22:22 1021 30.15 851 25.13 12.3 54.1 81 9.1 48.4 -86.4 -3.402
22:23 1022 30.18 851 25.13 12.3 54.1 81 9.1 48.3 -86.4 -3.402
22:24 1022 30.18 851 25.13 12.2 54 81 9.1 48.3 -86.4 -3.402
22:25 1022 30.18 851 25.13 12.2 53.9 81 9.1 48.3 -86.3 -3.398
22:26 1022 30.18 851 25.13 12.2 53.9 81 9.1 48.3 -86.3 -3.398
22:27 1022 30.18 851 25.13 12.2 53.9 81 9.1 48.4 -86.3 -3.398
22:28 1022 30.18 851 25.13 12.2 54 81 9 48.2 -86.2 -3.394
22:29 1022 30.18 851 25.13 12.2 54 80 9 48.2 -86.2 -3.394
22:30 1021 30.15 851 25.13 12.3 54.1 80 9 48.3 -86.2 -3.394
22:31 1022 30.18 851 25.13 12.3 54.2 80 9.1 48.3 -86.2 -3.394
22:32 1021 30.15 851 25.13 12.3 54.2 80 9 48.2 -86.2 -3.394
22:33 1021 30.15 851 25.13 12.4 54.4 79 9 48.1 -86.2 -3.394
22:34 1021 30.15 851 25.13 12.5 54.5 79 9 48.1 -86.2 -3.394
22:35 1021 30.15 851 25.13 12.6 54.6 79 9 48.1 -86.2 -3.394
22:36 1022 30.18 851 25.13 12.6 54.7 78 9 48.2 -86.2 -3.394
22:37 1022 30.18 851 25.13 12.7 54.8 78 9 48.2 -86.2 -3.394
22:38 1022 30.18 851 25.13 12.7 54.8 77 8.8 47.8 -86.1 -3.39
22:39 1022 30.18 851 25.13 12.7 54.9 77 8.8 47.8 -86.1 -3.39
22:40 1022 30.18 851 25.13 12.8 55.1 75 8.5 47.4 -86.2 -3.394
22:41 1022 30.18 851 25.13 13 55.3 74 8.5 47.2 -86.2 -3.394
22:42 1022 30.18 851 25.13 13.1 55.6 74 8.7 47.6 -86.2 -3.394
22:43 1022 30.18 851 25.13 13.1 55.6 73 8.4 47.2 -86.3 -3.398
22:44 1022 30.18 851 25.13 13.2 55.8 72 8.4 47.1 -86.4 -3.402
22:45 1022 30.18 851 25.13 13.3 55.9 73 8.7 47.6 -86.4 -3.402
22:46 1022 30.18 851 25.13 13.3 55.9 75 9.1 48.3 -86.4 -3.402
22:47 1022 30.18 851 25.13 13.2 55.8 74 8.7 47.6 -86.3 -3.398
22:48 1022 30.18 851 25.13 13.2 55.8 73 8.6 47.4 -86.2 -3.394
22:49 1022 30.18 851 25.13 13.2 55.8 72 8.3 46.9 -86.4 -3.402
22:50 1022 30.18 851 25.13 13.3 55.9 71 8.2 46.7 -86.7 -3.413
22:51 1022 30.18 851 25.13 13.4 56.1 70 8 46.5 -87.2 -3.433
22:52 1022 30.18 851 25.13 13.5 56.2 72 8.5 47.3 -87.8 -3.457
22:53 1022 30.18 851 25.13 13.5 56.3 71 8.4 47.2 -88.4 -3.48
22:54 1022 30.18 851 25.13 13.5 56.3 72 8.6 47.4 -89.1 -3.508
22:55 1022 30.18 851 25.13 13.4 56.1 74 8.8 47.9 -92.3 -3.634
22:56 1022 30.18 851 25.13 13.3 56 75 8.9 48.1 -96.4 -3.795
22:57 1022 30.18 851 25.13 13.3 55.9 75 9 48.2 -98.3 -3.87
22:58 1022 30.18 851 25.13 13.1 55.6 76 9.1 48.4 -97.3 -3.831
22:59 1022 30.18 851 25.13 13 55.4 78 9.3 48.7 -96.8 -3.811
23:00 1022 30.18 851 25.13 12.9 55.3 79 9.4 48.9 -97.8 -3.85
23:01 1022 30.18 851 25.13 12.9 55.1 79 9.4 48.9 -101.2 -3.984
23:02 1022 30.18 851 25.13 12.8 55 79 9.2 48.6 -100.3 -3.949
23:03 1022 30.18 851 25.13 12.8 55.1 80 9.5 49.1 -99.1 -3.902
23:04 1022 30.18 852 25.16 12.8 55 80 9.5 49 -94.4 -3.717
23:05 1022 30.18 852 25.16 12.8 55 78 9 48.2 -90 -3.543
23:06 1022 30.18 851 25.13 12.7 54.9 79 9.3 48.7 -87.6 -3.449
23:07 1022 30.18 851 25.13 12.7 54.9 80 9.4 49 -86.2 -3.394
23:08 1022 30.18 851 25.13 12.7 54.8 78 8.9 48 -85.4 -3.362
23:09 1022 30.18 851 25.13 12.7 54.9 76 8.6 47.5 -85 -3.346
23:10 1022 30.18 851 25.13 12.9 55.2 71 7.8 46.1 -84.8 -3.339
23:11 1022 30.18 851 25.13 13.1 55.5 69 7.5 45.5 -84.6 -3.331
23:12 1022 30.18 851 25.13 13.3 55.9 67 7.3 45.1 -84.5 -3.327
23:13 1022 30.18 851 25.13 13.4 56.1 67 7.5 45.5 -84.5 -3.327
23:14 1022 30.18 851 25.13 13.4 56.1 67 7.5 45.4 -84.4 -3.323
23:15 1022 30.18 851 25.13 13.5 56.2 65 7.1 44.7 -84.4 -3.323
23:16 1022 30.18 851 25.13 13.5 56.2 69 7.9 46.2 -84.4 -3.323
23:17 1022 30.18 851 25.13 13.5 56.3 65 7.2 44.9 -84.4 -3.323
23:18 1022 30.18 851 25.13 13.6 56.4 63 6.7 44 -84.4 -3.323
23:19 1022 30.18 851 25.13 13.8 56.8 60 6.3 43.3 -84.3 -3.319
23:20 1022 30.18 851 25.13 14 57.1 63 7.2 45 -84.4 -3.323
23:21 1022 30.18 851 25.13 14 57.2 64 7.3 45.2 -84.4 -3.323
23:22 1022 30.18 851 25.13 13.9 57 63 7 44.7 -84.3 -3.319
23:23 1022 30.18 851 25.13 13.9 57.1 65 7.5 45.5 -84.2 -3.315
23:24 1022 30.18 851 25.13 14 57.2 62 6.9 44.5 -84.2 -3.315
23:25 1022 30.18 851 25.13 14 57.2 62 6.9 44.4 -84.2 -3.315
23:26 1022 30.18 851 25.13 14 57.3 62 7 44.7 -84.2 -3.315
23:27 1022 30.18 851 25.13 14 57.2 62 7 44.6 -84.1 -3.311
23:28 1022 30.18 851 25.13 14 57.1 63 7.2 44.9 -84.1 -3.311
23:29 1022 30.18 851 25.13 13.9 57.1 65 7.5 45.5 -84.1 -3.311
23:30 1022 30.18 852 25.16 13.9 57 64 7.3 45.1 -84.1 -3.311
23:31 1022 30.18 852 25.16 13.8 56.9 63 7 44.7 -84.1 -3.311
23:32 1022 30.18 852 25.16 13.8 56.8 63 6.9 44.5 -84.2 -3.315
23:33 1022 30.18 852 25.16 13.8 56.8 64 7.2 44.9 -84.4 -3.323
23:34 1022 30.18 852 25.16 13.8 56.8 65 7.3 45.1 -84.6 -3.331
23:35 1022 30.18 852 25.16 13.7 56.7 67 7.7 45.9 -84.7 -3.335
23:36 1022 30.18 852 25.16 13.6 56.6 67 7.6 45.8 -84.7 -3.335
23:37 1022 30.18 852 25.16 13.6 56.4 67 7.6 45.8 -84.5 -3.327
23:38 1022 30.18 852 25.16 13.5 56.2 68 7.8 46 -84.5 -3.327
23:39 1022 30.18 851 25.13 13.4 56.1 68 7.7 45.9 -84.4 -3.323
23:40 1022 30.18 852 25.16 13.4 56.1 69 7.8 46.1 -84.4 -3.323
23:41 1022 30.18 852 25.16 13.3 56 69 7.8 46 -84.5 -3.327
23:42 1022 30.18 852 25.16 13.3 55.9 71 8.1 46.6 -84.5 -3.327
23:43 1023 30.21 852 25.16 13.1 55.6 73 8.4 47.1 -84.6 -3.331
23:44 1023 30.21 852 25.16 12.9 55.3 75 8.7 47.6 -84.6 -3.331
23:45 1023 30.21 852 25.16 12.8 55 79 9.2 48.6 -84.6 -3.331
23:46 1023 30.21 852 25.16 12.5 54.5 81 9.3 48.7 -84.5 -3.327
23:47 1023 30.21 852 25.16 12.3 54.1 81 9.1 48.3 -84.5 -3.327
23:48 1023 30.21 852 25.16 12.1 53.9 82 9.2 48.5 -84.5 -3.327
23:49 1023 30.21 852 25.16 12.1 53.7 75 7.8 46 -84.8 -3.339
23:50 1023 30.21 852 25.16 12.3 54.1 74 7.9 46.2 -85.6 -3.37
23:51 1023 30.21 852 25.16 12.4 54.3 75 8.2 46.8 -85.6 -3.37
23:52 1023 30.21 852 25.16 12.5 54.4 73 7.7 45.9 -85.4 -3.362
23:53 1022 30.18 852 25.16 12.5 54.5 69 6.9 44.5 -85.1 -3.35
23:54 1023 30.21 852 25.16 12.7 54.8 69 7.2 44.9 -84.9 -3.343
23:55 1023 30.21 852 25.16 12.8 55 65 6.5 43.7 -84.9 -3.343
23:56 1023 30.21 852 25.16 12.8 55 66 6.5 43.8 -84.8 -3.339
23:57 1023 30.21 852 25.16 12.8 55.1 66 6.8 44.2 -84.8 -3.339
23:58 1023 30.21 852 25.16 12.8 55 63 6 42.9 -84.8 -3.339
23:59 1023 30.21 852 25.16 12.7 54.9 63 6 42.8 -84.8 -3.339
24:00 1023 30.21 852 25.16 12.8 55.1 65 6.4 43.5 -84.8 -3.339